<?xml version="1.0" encoding="UTF-8" standalone="no" ?>
<gpx xmlns="http://www.topografix.com/GPX/1/1" xmlns:xsi="http://www.w3.org/2001/XMLSchema-instance" xsi:schemaLocation="http://www.topografix.com/GPX/1/1 http://www.topografix.com/GPX/1/1/gpx.xsd" version="1.1" creator="VisuGPX - https://www.visugpx.com">
  <metadata>
    <name>La rando de Carole Essalois 2025</name>
  </metadata>
  <trk>
    <name><![CDATA[Essalois parcours entier 12/10-22492982]]></name>
    <extensions>
      <line xmlns="http://www.topografix.com/GPX/gpx_style/0/2">
        <color>0000FF</color>
        <width>4</width>
      </line>
    </extensions>
    <trkseg>
      <trkpt lat="45.4759" lon="4.18023">
        <ele>481</ele>
        <time>2025-09-22T19:55:24Z</time>
      </trkpt>
      <trkpt lat="45.47595" lon="4.1802">
        <ele>482</ele>
        <time>2025-09-22T19:55:25Z</time>
      </trkpt>
      <trkpt lat="45.47597" lon="4.18013">
        <ele>483</ele>
        <time>2025-09-22T19:55:27Z</time>
      </trkpt>
      <trkpt lat="45.4758" lon="4.17985">
        <ele>485</ele>
        <time>2025-09-22T19:55:33Z</time>
      </trkpt>
      <trkpt lat="45.47577" lon="4.17973">
        <ele>485</ele>
        <time>2025-09-22T19:55:35Z</time>
      </trkpt>
      <trkpt lat="45.47578" lon="4.17951">
        <ele>485</ele>
        <time>2025-09-22T19:55:38Z</time>
      </trkpt>
      <trkpt lat="45.47582" lon="4.17939">
        <ele>486</ele>
        <time>2025-09-22T19:55:40Z</time>
      </trkpt>
      <trkpt lat="45.47598" lon="4.17922">
        <ele>486</ele>
        <time>2025-09-22T19:55:45Z</time>
      </trkpt>
      <trkpt lat="45.47608" lon="4.17898">
        <ele>486</ele>
        <time>2025-09-22T19:55:50Z</time>
      </trkpt>
      <trkpt lat="45.47641" lon="4.17767">
        <ele>487</ele>
        <time>2025-09-22T19:56:12Z</time>
      </trkpt>
      <trkpt lat="45.47643" lon="4.17743">
        <ele>487</ele>
        <time>2025-09-22T19:56:16Z</time>
      </trkpt>
      <trkpt lat="45.47616" lon="4.17735">
        <ele>487</ele>
        <time>2025-09-22T19:56:23Z</time>
      </trkpt>
      <trkpt lat="45.47586" lon="4.17735">
        <ele>487</ele>
        <time>2025-09-22T19:56:30Z</time>
      </trkpt>
      <trkpt lat="45.47488" lon="4.17748">
        <ele>483</ele>
        <time>2025-09-22T19:56:53Z</time>
      </trkpt>
      <trkpt lat="45.47457" lon="4.17749">
        <ele>481</ele>
        <time>2025-09-22T19:57:00Z</time>
      </trkpt>
      <trkpt lat="45.47394" lon="4.17736">
        <ele>477</ele>
        <time>2025-09-22T19:57:15Z</time>
      </trkpt>
      <trkpt lat="45.47368" lon="4.17727">
        <ele>476</ele>
        <time>2025-09-22T19:57:21Z</time>
      </trkpt>
      <trkpt lat="45.47365" lon="4.17729">
        <ele>476</ele>
        <time>2025-09-22T19:57:22Z</time>
      </trkpt>
      <trkpt lat="45.47368" lon="4.1774">
        <ele>475</ele>
        <time>2025-09-22T19:57:24Z</time>
      </trkpt>
      <trkpt lat="45.47396" lon="4.17801">
        <ele>473</ele>
        <time>2025-09-22T19:57:36Z</time>
      </trkpt>
      <trkpt lat="45.4744" lon="4.17913">
        <ele>470</ele>
        <time>2025-09-22T19:57:57Z</time>
      </trkpt>
      <trkpt lat="45.47458" lon="4.17954">
        <ele>470</ele>
        <time>2025-09-22T19:58:05Z</time>
      </trkpt>
      <trkpt lat="45.47484" lon="4.18004">
        <ele>471</ele>
        <time>2025-09-22T19:58:15Z</time>
      </trkpt>
      <trkpt lat="45.47504" lon="4.18035">
        <ele>469</ele>
        <time>2025-09-22T19:58:22Z</time>
      </trkpt>
      <trkpt lat="45.47545" lon="4.1809">
        <ele>466</ele>
        <time>2025-09-22T19:58:35Z</time>
      </trkpt>
      <trkpt lat="45.47665" lon="4.18233">
        <ele>460</ele>
        <time>2025-09-22T19:59:12Z</time>
      </trkpt>
      <trkpt lat="45.47726" lon="4.18314">
        <ele>456</ele>
        <time>2025-09-22T19:59:31Z</time>
      </trkpt>
      <trkpt lat="45.4774" lon="4.18337">
        <ele>455</ele>
        <time>2025-09-22T19:59:36Z</time>
      </trkpt>
      <trkpt lat="45.47771" lon="4.18401">
        <ele>452</ele>
        <time>2025-09-22T19:59:49Z</time>
      </trkpt>
      <trkpt lat="45.47837" lon="4.18569">
        <ele>450</ele>
        <time>2025-09-22T20:00:20Z</time>
      </trkpt>
      <trkpt lat="45.47856" lon="4.18605">
        <ele>449</ele>
        <time>2025-09-22T20:00:28Z</time>
      </trkpt>
      <trkpt lat="45.47888" lon="4.18651">
        <ele>448</ele>
        <time>2025-09-22T20:00:38Z</time>
      </trkpt>
      <trkpt lat="45.4793" lon="4.18693">
        <ele>446</ele>
        <time>2025-09-22T20:00:50Z</time>
      </trkpt>
      <trkpt lat="45.47964" lon="4.18714">
        <ele>444</ele>
        <time>2025-09-22T20:00:59Z</time>
      </trkpt>
      <trkpt lat="45.48007" lon="4.18732">
        <ele>443</ele>
        <time>2025-09-22T20:01:09Z</time>
      </trkpt>
      <trkpt lat="45.48076" lon="4.18748">
        <ele>445</ele>
        <time>2025-09-22T20:01:26Z</time>
      </trkpt>
      <trkpt lat="45.48112" lon="4.18753">
        <ele>444</ele>
        <time>2025-09-22T20:01:34Z</time>
      </trkpt>
      <trkpt lat="45.48155" lon="4.18751">
        <ele>442</ele>
        <time>2025-09-22T20:01:44Z</time>
      </trkpt>
      <trkpt lat="45.48208" lon="4.18741">
        <ele>440</ele>
        <time>2025-09-22T20:01:57Z</time>
      </trkpt>
      <trkpt lat="45.48279" lon="4.18721">
        <ele>436</ele>
        <time>2025-09-22T20:02:14Z</time>
      </trkpt>
      <trkpt lat="45.48365" lon="4.18693">
        <ele>434</ele>
        <time>2025-09-22T20:02:34Z</time>
      </trkpt>
      <trkpt lat="45.48422" lon="4.18669">
        <ele>434</ele>
        <time>2025-09-22T20:02:48Z</time>
      </trkpt>
      <trkpt lat="45.48518" lon="4.18619">
        <ele>429</ele>
        <time>2025-09-22T20:03:12Z</time>
      </trkpt>
      <trkpt lat="45.48547" lon="4.1861">
        <ele>427</ele>
        <time>2025-09-22T20:03:19Z</time>
      </trkpt>
      <trkpt lat="45.48568" lon="4.18607">
        <ele>426</ele>
        <time>2025-09-22T20:03:24Z</time>
      </trkpt>
      <trkpt lat="45.48578" lon="4.18601">
        <ele>425</ele>
        <time>2025-09-22T20:03:26Z</time>
      </trkpt>
      <trkpt lat="45.48581" lon="4.18603">
        <ele>425</ele>
        <time>2025-09-22T20:03:27Z</time>
      </trkpt>
      <trkpt lat="45.48603" lon="4.18602">
        <ele>423</ele>
        <time>2025-09-22T20:03:32Z</time>
      </trkpt>
      <trkpt lat="45.48608" lon="4.18606">
        <ele>423</ele>
        <time>2025-09-22T20:03:34Z</time>
      </trkpt>
      <trkpt lat="45.48617" lon="4.18605">
        <ele>422</ele>
        <time>2025-09-22T20:03:36Z</time>
      </trkpt>
      <trkpt lat="45.48669" lon="4.18619">
        <ele>419</ele>
        <time>2025-09-22T20:03:48Z</time>
      </trkpt>
      <trkpt lat="45.48736" lon="4.18649">
        <ele>418</ele>
        <time>2025-09-22T20:04:04Z</time>
      </trkpt>
      <trkpt lat="45.48763" lon="4.18658">
        <ele>417</ele>
        <time>2025-09-22T20:04:11Z</time>
      </trkpt>
      <trkpt lat="45.48789" lon="4.18663">
        <ele>417</ele>
        <time>2025-09-22T20:04:17Z</time>
      </trkpt>
      <trkpt lat="45.48818" lon="4.18663">
        <ele>415</ele>
        <time>2025-09-22T20:04:24Z</time>
      </trkpt>
      <trkpt lat="45.48864" lon="4.18656">
        <ele>415</ele>
        <time>2025-09-22T20:04:35Z</time>
      </trkpt>
      <trkpt lat="45.48921" lon="4.18637">
        <ele>414</ele>
        <time>2025-09-22T20:04:48Z</time>
      </trkpt>
      <trkpt lat="45.48929" lon="4.1864">
        <ele>414</ele>
        <time>2025-09-22T20:04:50Z</time>
      </trkpt>
      <trkpt lat="45.48933" lon="4.18633">
        <ele>414</ele>
        <time>2025-09-22T20:04:52Z</time>
      </trkpt>
      <trkpt lat="45.48939" lon="4.18631">
        <ele>414</ele>
        <time>2025-09-22T20:04:53Z</time>
      </trkpt>
      <trkpt lat="45.48948" lon="4.18632">
        <ele>414</ele>
        <time>2025-09-22T20:04:55Z</time>
      </trkpt>
      <trkpt lat="45.49036" lon="4.18602">
        <ele>415</ele>
        <time>2025-09-22T20:05:16Z</time>
      </trkpt>
      <trkpt lat="45.49072" lon="4.18595">
        <ele>416</ele>
        <time>2025-09-22T20:05:25Z</time>
      </trkpt>
      <trkpt lat="45.49116" lon="4.18583">
        <ele>415</ele>
        <time>2025-09-22T20:05:35Z</time>
      </trkpt>
      <trkpt lat="45.49251" lon="4.18561">
        <ele>415</ele>
        <time>2025-09-22T20:06:07Z</time>
      </trkpt>
      <trkpt lat="45.49356" lon="4.18554">
        <ele>414</ele>
        <time>2025-09-22T20:06:32Z</time>
      </trkpt>
      <trkpt lat="45.49359" lon="4.18548">
        <ele>414</ele>
        <time>2025-09-22T20:06:33Z</time>
      </trkpt>
      <trkpt lat="45.49364" lon="4.18545">
        <ele>414</ele>
        <time>2025-09-22T20:06:34Z</time>
      </trkpt>
      <trkpt lat="45.4937" lon="4.18546">
        <ele>414</ele>
        <time>2025-09-22T20:06:35Z</time>
      </trkpt>
      <trkpt lat="45.49375" lon="4.18552">
        <ele>414</ele>
        <time>2025-09-22T20:06:37Z</time>
      </trkpt>
      <trkpt lat="45.49389" lon="4.18554">
        <ele>414</ele>
        <time>2025-09-22T20:06:40Z</time>
      </trkpt>
      <trkpt lat="45.49607" lon="4.18559">
        <ele>414</ele>
        <time>2025-09-22T20:07:31Z</time>
      </trkpt>
      <trkpt lat="45.49751" lon="4.18577">
        <ele>414</ele>
        <time>2025-09-22T20:08:05Z</time>
      </trkpt>
      <trkpt lat="45.49784" lon="4.18583">
        <ele>413</ele>
        <time>2025-09-22T20:08:13Z</time>
      </trkpt>
      <trkpt lat="45.49788" lon="4.18585">
        <ele>413</ele>
        <time>2025-09-22T20:08:14Z</time>
      </trkpt>
      <trkpt lat="45.49786" lon="4.18587">
        <ele>413</ele>
        <time>2025-09-22T20:08:14Z</time>
      </trkpt>
      <trkpt lat="45.49797" lon="4.18589">
        <ele>412</ele>
        <time>2025-09-22T20:08:17Z</time>
      </trkpt>
      <trkpt lat="45.49803" lon="4.18596">
        <ele>412</ele>
        <time>2025-09-22T20:08:19Z</time>
      </trkpt>
      <trkpt lat="45.49813" lon="4.18594">
        <ele>412</ele>
        <time>2025-09-22T20:08:21Z</time>
      </trkpt>
      <trkpt lat="45.49819" lon="4.18589">
        <ele>412</ele>
        <time>2025-09-22T20:08:23Z</time>
      </trkpt>
      <trkpt lat="45.49917" lon="4.18615">
        <ele>409</ele>
        <time>2025-09-22T20:08:46Z</time>
      </trkpt>
      <trkpt lat="45.5009" lon="4.18675">
        <ele>405</ele>
        <time>2025-09-22T20:09:28Z</time>
      </trkpt>
      <trkpt lat="45.50125" lon="4.18688">
        <ele>405</ele>
        <time>2025-09-22T20:09:36Z</time>
      </trkpt>
      <trkpt lat="45.50152" lon="4.18701">
        <ele>404</ele>
        <time>2025-09-22T20:09:43Z</time>
      </trkpt>
      <trkpt lat="45.50161" lon="4.18697">
        <ele>404</ele>
        <time>2025-09-22T20:09:45Z</time>
      </trkpt>
      <trkpt lat="45.50183" lon="4.18708">
        <ele>404</ele>
        <time>2025-09-22T20:09:50Z</time>
      </trkpt>
      <trkpt lat="45.50288" lon="4.18745">
        <ele>405</ele>
        <time>2025-09-22T20:10:16Z</time>
      </trkpt>
      <trkpt lat="45.50368" lon="4.18782">
        <ele>405</ele>
        <time>2025-09-22T20:10:35Z</time>
      </trkpt>
      <trkpt lat="45.50679" lon="4.18963">
        <ele>398</ele>
        <time>2025-09-22T20:11:54Z</time>
      </trkpt>
      <trkpt lat="45.50735" lon="4.18991">
        <ele>398</ele>
        <time>2025-09-22T20:12:07Z</time>
      </trkpt>
      <trkpt lat="45.50756" lon="4.18998">
        <ele>398</ele>
        <time>2025-09-22T20:12:12Z</time>
      </trkpt>
      <trkpt lat="45.5076" lon="4.19003">
        <ele>398</ele>
        <time>2025-09-22T20:12:14Z</time>
      </trkpt>
      <trkpt lat="45.50769" lon="4.19003">
        <ele>398</ele>
        <time>2025-09-22T20:12:16Z</time>
      </trkpt>
      <trkpt lat="45.50773" lon="4.19009">
        <ele>397</ele>
        <time>2025-09-22T20:12:17Z</time>
      </trkpt>
      <trkpt lat="45.50778" lon="4.19008">
        <ele>397</ele>
        <time>2025-09-22T20:12:18Z</time>
      </trkpt>
      <trkpt lat="45.50824" lon="4.19025">
        <ele>396</ele>
        <time>2025-09-22T20:12:29Z</time>
      </trkpt>
      <trkpt lat="45.50955" lon="4.19065">
        <ele>394</ele>
        <time>2025-09-22T20:13:01Z</time>
      </trkpt>
      <trkpt lat="45.51032" lon="4.19086">
        <ele>392</ele>
        <time>2025-09-22T20:13:19Z</time>
      </trkpt>
      <trkpt lat="45.51076" lon="4.19102">
        <ele>391</ele>
        <time>2025-09-22T20:13:30Z</time>
      </trkpt>
      <trkpt lat="45.51079" lon="4.19099">
        <ele>391</ele>
        <time>2025-09-22T20:13:31Z</time>
      </trkpt>
      <trkpt lat="45.5109" lon="4.19106">
        <ele>391</ele>
        <time>2025-09-22T20:13:33Z</time>
      </trkpt>
      <trkpt lat="45.51099" lon="4.19108">
        <ele>390</ele>
        <time>2025-09-22T20:13:35Z</time>
      </trkpt>
      <trkpt lat="45.51101" lon="4.19111">
        <ele>390</ele>
        <time>2025-09-22T20:13:36Z</time>
      </trkpt>
      <trkpt lat="45.511" lon="4.19125">
        <ele>390</ele>
        <time>2025-09-22T20:13:38Z</time>
      </trkpt>
      <trkpt lat="45.51083" lon="4.19202">
        <ele>389</ele>
        <time>2025-09-22T20:13:52Z</time>
      </trkpt>
      <trkpt lat="45.51064" lon="4.19252">
        <ele>387</ele>
        <time>2025-09-22T20:14:01Z</time>
      </trkpt>
      <trkpt lat="45.51038" lon="4.19298">
        <ele>387</ele>
        <time>2025-09-22T20:14:11Z</time>
      </trkpt>
      <trkpt lat="45.51004" lon="4.19342">
        <ele>387</ele>
        <time>2025-09-22T20:14:21Z</time>
      </trkpt>
      <trkpt lat="45.50976" lon="4.19367">
        <ele>387</ele>
        <time>2025-09-22T20:14:29Z</time>
      </trkpt>
      <trkpt lat="45.50948" lon="4.19387">
        <ele>387</ele>
        <time>2025-09-22T20:14:36Z</time>
      </trkpt>
      <trkpt lat="45.50894" lon="4.19419">
        <ele>388</ele>
        <time>2025-09-22T20:14:50Z</time>
      </trkpt>
      <trkpt lat="45.50839" lon="4.19456">
        <ele>388</ele>
        <time>2025-09-22T20:15:04Z</time>
      </trkpt>
      <trkpt lat="45.50789" lon="4.19485">
        <ele>388</ele>
        <time>2025-09-22T20:15:17Z</time>
      </trkpt>
      <trkpt lat="45.50595" lon="4.19609">
        <ele>386</ele>
        <time>2025-09-22T20:16:06Z</time>
      </trkpt>
      <trkpt lat="45.50358" lon="4.19755">
        <ele>387</ele>
        <time>2025-09-22T20:17:07Z</time>
      </trkpt>
      <trkpt lat="45.50295" lon="4.19781">
        <ele>389</ele>
        <time>2025-09-22T20:17:22Z</time>
      </trkpt>
      <trkpt lat="45.5025" lon="4.19792">
        <ele>391</ele>
        <time>2025-09-22T20:17:33Z</time>
      </trkpt>
      <trkpt lat="45.50072" lon="4.19802">
        <ele>393</ele>
        <time>2025-09-22T20:18:14Z</time>
      </trkpt>
      <trkpt lat="45.50053" lon="4.19805">
        <ele>393</ele>
        <time>2025-09-22T20:18:19Z</time>
      </trkpt>
      <trkpt lat="45.50036" lon="4.19812">
        <ele>393</ele>
        <time>2025-09-22T20:18:23Z</time>
      </trkpt>
      <trkpt lat="45.50013" lon="4.19808">
        <ele>394</ele>
        <time>2025-09-22T20:18:28Z</time>
      </trkpt>
      <trkpt lat="45.49969" lon="4.19808">
        <ele>395</ele>
        <time>2025-09-22T20:18:39Z</time>
      </trkpt>
      <trkpt lat="45.49947" lon="4.19811">
        <ele>395</ele>
        <time>2025-09-22T20:18:44Z</time>
      </trkpt>
      <trkpt lat="45.49903" lon="4.19821">
        <ele>395</ele>
        <time>2025-09-22T20:18:54Z</time>
      </trkpt>
      <trkpt lat="45.4987" lon="4.19832">
        <ele>395</ele>
        <time>2025-09-22T20:19:02Z</time>
      </trkpt>
      <trkpt lat="45.49848" lon="4.19846">
        <ele>395</ele>
        <time>2025-09-22T20:19:08Z</time>
      </trkpt>
      <trkpt lat="45.49825" lon="4.19869">
        <ele>394</ele>
        <time>2025-09-22T20:19:14Z</time>
      </trkpt>
      <trkpt lat="45.49804" lon="4.19898">
        <ele>393</ele>
        <time>2025-09-22T20:19:21Z</time>
      </trkpt>
      <trkpt lat="45.49787" lon="4.19931">
        <ele>392</ele>
        <time>2025-09-22T20:19:28Z</time>
      </trkpt>
      <trkpt lat="45.49776" lon="4.19963">
        <ele>391</ele>
        <time>2025-09-22T20:19:34Z</time>
      </trkpt>
      <trkpt lat="45.49766" lon="4.20013">
        <ele>389</ele>
        <time>2025-09-22T20:19:42Z</time>
      </trkpt>
      <trkpt lat="45.49759" lon="4.20185">
        <ele>387</ele>
        <time>2025-09-22T20:20:10Z</time>
      </trkpt>
      <trkpt lat="45.49756" lon="4.20215">
        <ele>387</ele>
        <time>2025-09-22T20:20:15Z</time>
      </trkpt>
      <trkpt lat="45.49756" lon="4.2024">
        <ele>388</ele>
        <time>2025-09-22T20:20:19Z</time>
      </trkpt>
      <trkpt lat="45.49759" lon="4.20258">
        <ele>388</ele>
        <time>2025-09-22T20:20:22Z</time>
      </trkpt>
      <trkpt lat="45.49756" lon="4.20262">
        <ele>388</ele>
        <time>2025-09-22T20:20:23Z</time>
      </trkpt>
      <trkpt lat="45.49739" lon="4.2026">
        <ele>388</ele>
        <time>2025-09-22T20:20:27Z</time>
      </trkpt>
      <trkpt lat="45.49734" lon="4.20272">
        <ele>388</ele>
        <time>2025-09-22T20:20:30Z</time>
      </trkpt>
      <trkpt lat="45.49736" lon="4.20323">
        <ele>388</ele>
        <time>2025-09-22T20:20:38Z</time>
      </trkpt>
      <trkpt lat="45.49719" lon="4.20715">
        <ele>387</ele>
        <time>2025-09-22T20:21:42Z</time>
      </trkpt>
      <trkpt lat="45.49715" lon="4.20761">
        <ele>387</ele>
        <time>2025-09-22T20:21:50Z</time>
      </trkpt>
      <trkpt lat="45.49703" lon="4.20817">
        <ele>388</ele>
        <time>2025-09-22T20:22:00Z</time>
      </trkpt>
      <trkpt lat="45.49678" lon="4.20874">
        <ele>389</ele>
        <time>2025-09-22T20:22:11Z</time>
      </trkpt>
      <trkpt lat="45.49656" lon="4.20905">
        <ele>389</ele>
        <time>2025-09-22T20:22:18Z</time>
      </trkpt>
      <trkpt lat="45.49639" lon="4.20923">
        <ele>389</ele>
        <time>2025-09-22T20:22:23Z</time>
      </trkpt>
      <trkpt lat="45.49635" lon="4.20934">
        <ele>389</ele>
        <time>2025-09-22T20:22:25Z</time>
      </trkpt>
      <trkpt lat="45.49615" lon="4.20954">
        <ele>389</ele>
        <time>2025-09-22T20:22:30Z</time>
      </trkpt>
      <trkpt lat="45.49612" lon="4.20956">
        <ele>389</ele>
        <time>2025-09-22T20:22:31Z</time>
      </trkpt>
      <trkpt lat="45.49611" lon="4.20953">
        <ele>389</ele>
        <time>2025-09-22T20:22:32Z</time>
      </trkpt>
      <trkpt lat="45.49604" lon="4.20958">
        <ele>389</ele>
        <time>2025-09-22T20:22:34Z</time>
      </trkpt>
      <trkpt lat="45.49566" lon="4.21">
        <ele>390</ele>
        <time>2025-09-22T20:22:45Z</time>
      </trkpt>
      <trkpt lat="45.49531" lon="4.21033">
        <ele>390</ele>
        <time>2025-09-22T20:22:55Z</time>
      </trkpt>
      <trkpt lat="45.49422" lon="4.21152">
        <ele>389</ele>
        <time>2025-09-22T20:23:27Z</time>
      </trkpt>
      <trkpt lat="45.49396" lon="4.21178">
        <ele>389</ele>
        <time>2025-09-22T20:23:34Z</time>
      </trkpt>
      <trkpt lat="45.49384" lon="4.21185">
        <ele>389</ele>
        <time>2025-09-22T20:23:37Z</time>
      </trkpt>
      <trkpt lat="45.4938" lon="4.21192">
        <ele>389</ele>
        <time>2025-09-22T20:23:39Z</time>
      </trkpt>
      <trkpt lat="45.49373" lon="4.2116">
        <ele>389</ele>
        <time>2025-09-22T20:23:44Z</time>
      </trkpt>
      <trkpt lat="45.49373" lon="4.21101">
        <ele>389</ele>
        <time>2025-09-22T20:23:54Z</time>
      </trkpt>
      <trkpt lat="45.49371" lon="4.21094">
        <ele>389</ele>
        <time>2025-09-22T20:23:55Z</time>
      </trkpt>
      <trkpt lat="45.49368" lon="4.21092">
        <ele>388</ele>
        <time>2025-09-22T20:23:56Z</time>
      </trkpt>
      <trkpt lat="45.49286" lon="4.21113">
        <ele>389</ele>
        <time>2025-09-22T20:24:15Z</time>
      </trkpt>
      <trkpt lat="45.49152" lon="4.21139">
        <ele>390</ele>
        <time>2025-09-22T20:24:47Z</time>
      </trkpt>
      <trkpt lat="45.49128" lon="4.21141">
        <ele>390</ele>
        <time>2025-09-22T20:24:52Z</time>
      </trkpt>
      <trkpt lat="45.49077" lon="4.21156">
        <ele>390</ele>
        <time>2025-09-22T20:25:05Z</time>
      </trkpt>
      <trkpt lat="45.4906" lon="4.21164">
        <ele>390</ele>
        <time>2025-09-22T20:25:09Z</time>
      </trkpt>
      <trkpt lat="45.49058" lon="4.21168">
        <ele>390</ele>
        <time>2025-09-22T20:25:10Z</time>
      </trkpt>
      <trkpt lat="45.49059" lon="4.21177">
        <ele>390</ele>
        <time>2025-09-22T20:25:11Z</time>
      </trkpt>
      <trkpt lat="45.49078" lon="4.21202">
        <ele>391</ele>
        <time>2025-09-22T20:25:17Z</time>
      </trkpt>
      <trkpt lat="45.49075" lon="4.21214">
        <ele>391</ele>
        <time>2025-09-22T20:25:19Z</time>
      </trkpt>
      <trkpt lat="45.49009" lon="4.21245">
        <ele>391</ele>
        <time>2025-09-22T20:25:35Z</time>
      </trkpt>
      <trkpt lat="45.48979" lon="4.21255">
        <ele>391</ele>
        <time>2025-09-22T20:25:43Z</time>
      </trkpt>
      <trkpt lat="45.48927" lon="4.21281">
        <ele>391</ele>
        <time>2025-09-22T20:25:55Z</time>
      </trkpt>
      <trkpt lat="45.48895" lon="4.21293">
        <ele>392</ele>
        <time>2025-09-22T20:26:03Z</time>
      </trkpt>
      <trkpt lat="45.48863" lon="4.21301">
        <ele>393</ele>
        <time>2025-09-22T20:26:11Z</time>
      </trkpt>
      <trkpt lat="45.48799" lon="4.21313">
        <ele>394</ele>
        <time>2025-09-22T20:26:26Z</time>
      </trkpt>
      <trkpt lat="45.48769" lon="4.21315">
        <ele>395</ele>
        <time>2025-09-22T20:26:33Z</time>
      </trkpt>
      <trkpt lat="45.48688" lon="4.21343">
        <ele>396</ele>
        <time>2025-09-22T20:26:52Z</time>
      </trkpt>
      <trkpt lat="45.48611" lon="4.21366">
        <ele>397</ele>
        <time>2025-09-22T20:27:11Z</time>
      </trkpt>
      <trkpt lat="45.48606" lon="4.21376">
        <ele>398</ele>
        <time>2025-09-22T20:27:13Z</time>
      </trkpt>
      <trkpt lat="45.48606" lon="4.21398">
        <ele>398</ele>
        <time>2025-09-22T20:27:16Z</time>
      </trkpt>
      <trkpt lat="45.48612" lon="4.21432">
        <ele>398</ele>
        <time>2025-09-22T20:27:22Z</time>
      </trkpt>
      <trkpt lat="45.4862" lon="4.21458">
        <ele>398</ele>
        <time>2025-09-22T20:27:27Z</time>
      </trkpt>
      <trkpt lat="45.48664" lon="4.21567">
        <ele>397</ele>
        <time>2025-09-22T20:27:47Z</time>
      </trkpt>
      <trkpt lat="45.48665" lon="4.21579">
        <ele>397</ele>
        <time>2025-09-22T20:27:49Z</time>
      </trkpt>
      <trkpt lat="45.4866" lon="4.2159">
        <ele>397</ele>
        <time>2025-09-22T20:27:51Z</time>
      </trkpt>
      <trkpt lat="45.48607" lon="4.21612">
        <ele>399</ele>
        <time>2025-09-22T20:28:04Z</time>
      </trkpt>
      <trkpt lat="45.4858" lon="4.21617">
        <ele>400</ele>
        <time>2025-09-22T20:28:11Z</time>
      </trkpt>
      <trkpt lat="45.48554" lon="4.21616">
        <ele>400</ele>
        <time>2025-09-22T20:28:17Z</time>
      </trkpt>
      <trkpt lat="45.48535" lon="4.21623">
        <ele>400</ele>
        <time>2025-09-22T20:28:21Z</time>
      </trkpt>
      <trkpt lat="45.48492" lon="4.21649">
        <ele>400</ele>
        <time>2025-09-22T20:28:32Z</time>
      </trkpt>
      <trkpt lat="45.48456" lon="4.21679">
        <ele>402</ele>
        <time>2025-09-22T20:28:42Z</time>
      </trkpt>
      <trkpt lat="45.48438" lon="4.21691">
        <ele>403</ele>
        <time>2025-09-22T20:28:47Z</time>
      </trkpt>
      <trkpt lat="45.48393" lon="4.21695">
        <ele>404</ele>
        <time>2025-09-22T20:28:57Z</time>
      </trkpt>
      <trkpt lat="45.48366" lon="4.21703">
        <ele>404</ele>
        <time>2025-09-22T20:29:04Z</time>
      </trkpt>
      <trkpt lat="45.48322" lon="4.21722">
        <ele>406</ele>
        <time>2025-09-22T20:29:14Z</time>
      </trkpt>
      <trkpt lat="45.4829" lon="4.21745">
        <ele>407</ele>
        <time>2025-09-22T20:29:23Z</time>
      </trkpt>
      <trkpt lat="45.48285" lon="4.21753">
        <ele>408</ele>
        <time>2025-09-22T20:29:24Z</time>
      </trkpt>
      <trkpt lat="45.48282" lon="4.21767">
        <ele>408</ele>
        <time>2025-09-22T20:29:27Z</time>
      </trkpt>
      <trkpt lat="45.48273" lon="4.21776">
        <ele>408</ele>
        <time>2025-09-22T20:29:29Z</time>
      </trkpt>
      <trkpt lat="45.4819" lon="4.2179">
        <ele>407</ele>
        <time>2025-09-22T20:29:49Z</time>
      </trkpt>
      <trkpt lat="45.48173" lon="4.21798">
        <ele>408</ele>
        <time>2025-09-22T20:29:53Z</time>
      </trkpt>
      <trkpt lat="45.48163" lon="4.21807">
        <ele>408</ele>
        <time>2025-09-22T20:29:56Z</time>
      </trkpt>
      <trkpt lat="45.48122" lon="4.21817">
        <ele>410</ele>
        <time>2025-09-22T20:30:06Z</time>
      </trkpt>
      <trkpt lat="45.48106" lon="4.21826">
        <ele>411</ele>
        <time>2025-09-22T20:30:10Z</time>
      </trkpt>
      <trkpt lat="45.48101" lon="4.21833">
        <ele>411</ele>
        <time>2025-09-22T20:30:11Z</time>
      </trkpt>
      <trkpt lat="45.48098" lon="4.2185">
        <ele>411</ele>
        <time>2025-09-22T20:30:14Z</time>
      </trkpt>
      <trkpt lat="45.48102" lon="4.21983">
        <ele>409</ele>
        <time>2025-09-22T20:30:36Z</time>
      </trkpt>
      <trkpt lat="45.48098" lon="4.2199">
        <ele>409</ele>
        <time>2025-09-22T20:30:37Z</time>
      </trkpt>
      <trkpt lat="45.48092" lon="4.21989">
        <ele>410</ele>
        <time>2025-09-22T20:30:39Z</time>
      </trkpt>
      <trkpt lat="45.48085" lon="4.21983">
        <ele>410</ele>
        <time>2025-09-22T20:30:41Z</time>
      </trkpt>
      <trkpt lat="45.48051" lon="4.21949">
        <ele>412</ele>
        <time>2025-09-22T20:30:50Z</time>
      </trkpt>
      <trkpt lat="45.48003" lon="4.21923">
        <ele>415</ele>
        <time>2025-09-22T20:31:02Z</time>
      </trkpt>
      <trkpt lat="45.47985" lon="4.21917">
        <ele>416</ele>
        <time>2025-09-22T20:31:07Z</time>
      </trkpt>
      <trkpt lat="45.4795" lon="4.21914">
        <ele>418</ele>
        <time>2025-09-22T20:31:15Z</time>
      </trkpt>
      <trkpt lat="45.47928" lon="4.21908">
        <ele>420</ele>
        <time>2025-09-22T20:31:20Z</time>
      </trkpt>
      <trkpt lat="45.47923" lon="4.21904">
        <ele>420</ele>
        <time>2025-09-22T20:31:21Z</time>
      </trkpt>
      <trkpt lat="45.47885" lon="4.21906">
        <ele>425</ele>
        <time>2025-09-22T20:31:30Z</time>
      </trkpt>
      <trkpt lat="45.47878" lon="4.21909">
        <ele>426</ele>
        <time>2025-09-22T20:31:32Z</time>
      </trkpt>
      <trkpt lat="45.47868" lon="4.21919">
        <ele>427</ele>
        <time>2025-09-22T20:31:35Z</time>
      </trkpt>
      <trkpt lat="45.47847" lon="4.21968">
        <ele>431</ele>
        <time>2025-09-22T20:31:44Z</time>
      </trkpt>
      <trkpt lat="45.4784" lon="4.22011">
        <ele>432</ele>
        <time>2025-09-22T20:31:51Z</time>
      </trkpt>
      <trkpt lat="45.47836" lon="4.22023">
        <ele>432</ele>
        <time>2025-09-22T20:31:54Z</time>
      </trkpt>
      <trkpt lat="45.4783" lon="4.22033">
        <ele>432</ele>
        <time>2025-09-22T20:31:56Z</time>
      </trkpt>
      <trkpt lat="45.4782" lon="4.22042">
        <ele>433</ele>
        <time>2025-09-22T20:31:59Z</time>
      </trkpt>
      <trkpt lat="45.47811" lon="4.22058">
        <ele>433</ele>
        <time>2025-09-22T20:32:02Z</time>
      </trkpt>
      <trkpt lat="45.47806" lon="4.22062">
        <ele>434</ele>
        <time>2025-09-22T20:32:03Z</time>
      </trkpt>
      <trkpt lat="45.47792" lon="4.22067">
        <ele>435</ele>
        <time>2025-09-22T20:32:07Z</time>
      </trkpt>
      <trkpt lat="45.47777" lon="4.22067">
        <ele>437</ele>
        <time>2025-09-22T20:32:10Z</time>
      </trkpt>
      <trkpt lat="45.47769" lon="4.22064">
        <ele>438</ele>
        <time>2025-09-22T20:32:12Z</time>
      </trkpt>
      <trkpt lat="45.47723" lon="4.22059">
        <ele>442</ele>
        <time>2025-09-22T20:32:23Z</time>
      </trkpt>
      <trkpt lat="45.47705" lon="4.2205">
        <ele>444</ele>
        <time>2025-09-22T20:32:27Z</time>
      </trkpt>
      <trkpt lat="45.4766" lon="4.22047">
        <ele>447</ele>
        <time>2025-09-22T20:32:38Z</time>
      </trkpt>
      <trkpt lat="45.47644" lon="4.22047">
        <ele>449</ele>
        <time>2025-09-22T20:32:42Z</time>
      </trkpt>
      <trkpt lat="45.47635" lon="4.22051">
        <ele>449</ele>
        <time>2025-09-22T20:32:44Z</time>
      </trkpt>
      <trkpt lat="45.47606" lon="4.22054">
        <ele>451</ele>
        <time>2025-09-22T20:32:51Z</time>
      </trkpt>
      <trkpt lat="45.4759" lon="4.22051">
        <ele>452</ele>
        <time>2025-09-22T20:32:54Z</time>
      </trkpt>
      <trkpt lat="45.47579" lon="4.22044">
        <ele>453</ele>
        <time>2025-09-22T20:32:57Z</time>
      </trkpt>
      <trkpt lat="45.47566" lon="4.2204">
        <ele>455</ele>
        <time>2025-09-22T20:33:00Z</time>
      </trkpt>
      <trkpt lat="45.4755" lon="4.22038">
        <ele>457</ele>
        <time>2025-09-22T20:33:04Z</time>
      </trkpt>
      <trkpt lat="45.47521" lon="4.22041">
        <ele>460</ele>
        <time>2025-09-22T20:33:11Z</time>
      </trkpt>
      <trkpt lat="45.47507" lon="4.22046">
        <ele>462</ele>
        <time>2025-09-22T20:33:14Z</time>
      </trkpt>
      <trkpt lat="45.47491" lon="4.22047">
        <ele>464</ele>
        <time>2025-09-22T20:33:18Z</time>
      </trkpt>
      <trkpt lat="45.47487" lon="4.22044">
        <ele>464</ele>
        <time>2025-09-22T20:33:19Z</time>
      </trkpt>
      <trkpt lat="45.47481" lon="4.22044">
        <ele>465</ele>
        <time>2025-09-22T20:33:20Z</time>
      </trkpt>
      <trkpt lat="45.47468" lon="4.22049">
        <ele>466</ele>
        <time>2025-09-22T20:33:23Z</time>
      </trkpt>
      <trkpt lat="45.47453" lon="4.22046">
        <ele>468</ele>
        <time>2025-09-22T20:33:27Z</time>
      </trkpt>
      <trkpt lat="45.47427" lon="4.22058">
        <ele>471</ele>
        <time>2025-09-22T20:33:33Z</time>
      </trkpt>
      <trkpt lat="45.4741" lon="4.22061">
        <ele>473</ele>
        <time>2025-09-22T20:33:37Z</time>
      </trkpt>
      <trkpt lat="45.47389" lon="4.2207">
        <ele>475</ele>
        <time>2025-09-22T20:33:43Z</time>
      </trkpt>
      <trkpt lat="45.47376" lon="4.22072">
        <ele>477</ele>
        <time>2025-09-22T20:33:46Z</time>
      </trkpt>
      <trkpt lat="45.47363" lon="4.22079">
        <ele>478</ele>
        <time>2025-09-22T20:33:49Z</time>
      </trkpt>
      <trkpt lat="45.47351" lon="4.22089">
        <ele>480</ele>
        <time>2025-09-22T20:33:52Z</time>
      </trkpt>
      <trkpt lat="45.47327" lon="4.22098">
        <ele>482</ele>
        <time>2025-09-22T20:33:58Z</time>
      </trkpt>
      <trkpt lat="45.47314" lon="4.22108">
        <ele>483</ele>
        <time>2025-09-22T20:34:01Z</time>
      </trkpt>
      <trkpt lat="45.47306" lon="4.22109">
        <ele>483</ele>
        <time>2025-09-22T20:34:03Z</time>
      </trkpt>
      <trkpt lat="45.47298" lon="4.22105">
        <ele>484</ele>
        <time>2025-09-22T20:34:05Z</time>
      </trkpt>
      <trkpt lat="45.47287" lon="4.22112">
        <ele>485</ele>
        <time>2025-09-22T20:34:08Z</time>
      </trkpt>
      <trkpt lat="45.47286" lon="4.2211">
        <ele>485</ele>
        <time>2025-09-22T20:34:08Z</time>
      </trkpt>
      <trkpt lat="45.47282" lon="4.22111">
        <ele>485</ele>
        <time>2025-09-22T20:34:09Z</time>
      </trkpt>
      <trkpt lat="45.47269" lon="4.22122">
        <ele>486</ele>
        <time>2025-09-22T20:34:13Z</time>
      </trkpt>
      <trkpt lat="45.4726" lon="4.22125">
        <ele>487</ele>
        <time>2025-09-22T20:34:15Z</time>
      </trkpt>
      <trkpt lat="45.4724" lon="4.22124">
        <ele>488</ele>
        <time>2025-09-22T20:34:20Z</time>
      </trkpt>
      <trkpt lat="45.47218" lon="4.22133">
        <ele>488</ele>
        <time>2025-09-22T20:34:25Z</time>
      </trkpt>
      <trkpt lat="45.47198" lon="4.22149">
        <ele>488</ele>
        <time>2025-09-22T20:34:30Z</time>
      </trkpt>
      <trkpt lat="45.47185" lon="4.2215">
        <ele>488</ele>
        <time>2025-09-22T20:34:33Z</time>
      </trkpt>
      <trkpt lat="45.47174" lon="4.22169">
        <ele>488</ele>
        <time>2025-09-22T20:34:37Z</time>
      </trkpt>
      <trkpt lat="45.4716" lon="4.22182">
        <ele>488</ele>
        <time>2025-09-22T20:34:41Z</time>
      </trkpt>
      <trkpt lat="45.47149" lon="4.22201">
        <ele>487</ele>
        <time>2025-09-22T20:34:45Z</time>
      </trkpt>
      <trkpt lat="45.47134" lon="4.22211">
        <ele>486</ele>
        <time>2025-09-22T20:34:49Z</time>
      </trkpt>
      <trkpt lat="45.47112" lon="4.22218">
        <ele>485</ele>
        <time>2025-09-22T20:34:55Z</time>
      </trkpt>
      <trkpt lat="45.47061" lon="4.22218">
        <ele>482</ele>
        <time>2025-09-22T20:35:06Z</time>
      </trkpt>
      <trkpt lat="45.4702" lon="4.2221">
        <ele>480</ele>
        <time>2025-09-22T20:35:16Z</time>
      </trkpt>
      <trkpt lat="45.47" lon="4.22214">
        <ele>481</ele>
        <time>2025-09-22T20:35:21Z</time>
      </trkpt>
      <trkpt lat="45.46979" lon="4.22225">
        <ele>483</ele>
        <time>2025-09-22T20:35:26Z</time>
      </trkpt>
      <trkpt lat="45.46912" lon="4.22269">
        <ele>487</ele>
        <time>2025-09-22T20:35:43Z</time>
      </trkpt>
      <trkpt lat="45.46867" lon="4.22292">
        <ele>491</ele>
        <time>2025-09-22T20:35:54Z</time>
      </trkpt>
      <trkpt lat="45.46856" lon="4.22295">
        <ele>492</ele>
        <time>2025-09-22T20:35:57Z</time>
      </trkpt>
      <trkpt lat="45.46839" lon="4.22309">
        <ele>495</ele>
        <time>2025-09-22T20:36:02Z</time>
      </trkpt>
      <trkpt lat="45.46831" lon="4.22321">
        <ele>498</ele>
        <time>2025-09-22T20:36:04Z</time>
      </trkpt>
      <trkpt lat="45.4681" lon="4.22336">
        <ele>500</ele>
        <time>2025-09-22T20:36:10Z</time>
      </trkpt>
      <trkpt lat="45.468" lon="4.22346">
        <ele>501</ele>
        <time>2025-09-22T20:36:13Z</time>
      </trkpt>
      <trkpt lat="45.46768" lon="4.22367">
        <ele>503</ele>
        <time>2025-09-22T20:36:21Z</time>
      </trkpt>
      <trkpt lat="45.46763" lon="4.22386">
        <ele>505</ele>
        <time>2025-09-22T20:36:24Z</time>
      </trkpt>
      <trkpt lat="45.46759" lon="4.22387">
        <ele>505</ele>
        <time>2025-09-22T20:36:25Z</time>
      </trkpt>
      <trkpt lat="45.46756" lon="4.22382">
        <ele>505</ele>
        <time>2025-09-22T20:36:26Z</time>
      </trkpt>
      <trkpt lat="45.46763" lon="4.22388">
        <ele>505</ele>
        <time>2025-09-22T20:36:28Z</time>
      </trkpt>
      <trkpt lat="45.46765" lon="4.22393">
        <ele>505</ele>
        <time>2025-09-22T20:36:29Z</time>
      </trkpt>
      <trkpt lat="45.46784" lon="4.22466">
        <ele>506</ele>
        <time>2025-09-22T20:36:42Z</time>
      </trkpt>
      <trkpt lat="45.46798" lon="4.22542">
        <ele>505</ele>
        <time>2025-09-22T20:36:55Z</time>
      </trkpt>
      <trkpt lat="45.46808" lon="4.22574">
        <ele>505</ele>
        <time>2025-09-22T20:37:00Z</time>
      </trkpt>
      <trkpt lat="45.46824" lon="4.22612">
        <ele>504</ele>
        <time>2025-09-22T20:37:08Z</time>
      </trkpt>
      <trkpt lat="45.46834" lon="4.22666">
        <ele>503</ele>
        <time>2025-09-22T20:37:17Z</time>
      </trkpt>
      <trkpt lat="45.46835" lon="4.22685">
        <ele>503</ele>
        <time>2025-09-22T20:37:20Z</time>
      </trkpt>
      <trkpt lat="45.46839" lon="4.22696">
        <ele>503</ele>
        <time>2025-09-22T20:37:22Z</time>
      </trkpt>
      <trkpt lat="45.46843" lon="4.22733">
        <ele>503</ele>
        <time>2025-09-22T20:37:28Z</time>
      </trkpt>
      <trkpt lat="45.46843" lon="4.22757">
        <ele>504</ele>
        <time>2025-09-22T20:37:32Z</time>
      </trkpt>
      <trkpt lat="45.46831" lon="4.22827">
        <ele>506</ele>
        <time>2025-09-22T20:37:44Z</time>
      </trkpt>
      <trkpt lat="45.46834" lon="4.22821">
        <ele>506</ele>
        <time>2025-09-22T20:37:45Z</time>
      </trkpt>
      <trkpt lat="45.46833" lon="4.22818">
        <ele>506</ele>
        <time>2025-09-22T20:37:46Z</time>
      </trkpt>
      <trkpt lat="45.46816" lon="4.22897">
        <ele>504</ele>
        <time>2025-09-22T20:37:59Z</time>
      </trkpt>
      <trkpt lat="45.46804" lon="4.22935">
        <ele>503</ele>
        <time>2025-09-22T20:38:06Z</time>
      </trkpt>
      <trkpt lat="45.46785" lon="4.22981">
        <ele>503</ele>
        <time>2025-09-22T20:38:15Z</time>
      </trkpt>
      <trkpt lat="45.46743" lon="4.23057">
        <ele>500</ele>
        <time>2025-09-22T20:38:31Z</time>
      </trkpt>
      <trkpt lat="45.46741" lon="4.23071">
        <ele>500</ele>
        <time>2025-09-22T20:38:33Z</time>
      </trkpt>
      <trkpt lat="45.46744" lon="4.23125">
        <ele>498</ele>
        <time>2025-09-22T20:38:42Z</time>
      </trkpt>
      <trkpt lat="45.46749" lon="4.23158">
        <ele>496</ele>
        <time>2025-09-22T20:38:47Z</time>
      </trkpt>
      <trkpt lat="45.46766" lon="4.23194">
        <ele>494</ele>
        <time>2025-09-22T20:38:54Z</time>
      </trkpt>
      <trkpt lat="45.46795" lon="4.23237">
        <ele>492</ele>
        <time>2025-09-22T20:39:04Z</time>
      </trkpt>
      <trkpt lat="45.46799" lon="4.23247">
        <ele>492</ele>
        <time>2025-09-22T20:39:06Z</time>
      </trkpt>
      <trkpt lat="45.46814" lon="4.23262">
        <ele>491</ele>
        <time>2025-09-22T20:39:10Z</time>
      </trkpt>
      <trkpt lat="45.46827" lon="4.23286">
        <ele>490</ele>
        <time>2025-09-22T20:39:15Z</time>
      </trkpt>
      <trkpt lat="45.46856" lon="4.23315">
        <ele>488</ele>
        <time>2025-09-22T20:39:24Z</time>
      </trkpt>
      <trkpt lat="45.46859" lon="4.23328">
        <ele>487</ele>
        <time>2025-09-22T20:39:26Z</time>
      </trkpt>
      <trkpt lat="45.46857" lon="4.23333">
        <ele>487</ele>
        <time>2025-09-22T20:39:27Z</time>
      </trkpt>
      <trkpt lat="45.46849" lon="4.23335">
        <ele>486</ele>
        <time>2025-09-22T20:39:29Z</time>
      </trkpt>
      <trkpt lat="45.46815" lon="4.23325">
        <ele>486</ele>
        <time>2025-09-22T20:39:37Z</time>
      </trkpt>
      <trkpt lat="45.46777" lon="4.2331">
        <ele>485</ele>
        <time>2025-09-22T20:39:46Z</time>
      </trkpt>
      <trkpt lat="45.46755" lon="4.23308">
        <ele>484</ele>
        <time>2025-09-22T20:39:51Z</time>
      </trkpt>
      <trkpt lat="45.46714" lon="4.23315">
        <ele>482</ele>
        <time>2025-09-22T20:40:01Z</time>
      </trkpt>
      <trkpt lat="45.46689" lon="4.23329">
        <ele>480</ele>
        <time>2025-09-22T20:40:07Z</time>
      </trkpt>
      <trkpt lat="45.46681" lon="4.23329">
        <ele>480</ele>
        <time>2025-09-22T20:40:09Z</time>
      </trkpt>
      <trkpt lat="45.46659" lon="4.23321">
        <ele>480</ele>
        <time>2025-09-22T20:40:14Z</time>
      </trkpt>
      <trkpt lat="45.46634" lon="4.23298">
        <ele>482</ele>
        <time>2025-09-22T20:40:21Z</time>
      </trkpt>
      <trkpt lat="45.46617" lon="4.23294">
        <ele>482</ele>
        <time>2025-09-22T20:40:25Z</time>
      </trkpt>
      <trkpt lat="45.46573" lon="4.23315">
        <ele>481</ele>
        <time>2025-09-22T20:40:36Z</time>
      </trkpt>
      <trkpt lat="45.46552" lon="4.23315">
        <ele>483</ele>
        <time>2025-09-22T20:40:41Z</time>
      </trkpt>
      <trkpt lat="45.46547" lon="4.23317">
        <ele>483</ele>
        <time>2025-09-22T20:40:42Z</time>
      </trkpt>
      <trkpt lat="45.46542" lon="4.2332">
        <ele>483</ele>
        <time>2025-09-22T20:40:43Z</time>
      </trkpt>
      <trkpt lat="45.46531" lon="4.23337">
        <ele>483</ele>
        <time>2025-09-22T20:40:47Z</time>
      </trkpt>
      <trkpt lat="45.46526" lon="4.2335">
        <ele>484</ele>
        <time>2025-09-22T20:40:50Z</time>
      </trkpt>
      <trkpt lat="45.46525" lon="4.23366">
        <ele>484</ele>
        <time>2025-09-22T20:40:52Z</time>
      </trkpt>
      <trkpt lat="45.46531" lon="4.23381">
        <ele>484</ele>
        <time>2025-09-22T20:40:55Z</time>
      </trkpt>
      <trkpt lat="45.46543" lon="4.23397">
        <ele>484</ele>
        <time>2025-09-22T20:40:59Z</time>
      </trkpt>
      <trkpt lat="45.46548" lon="4.23408">
        <ele>483</ele>
        <time>2025-09-22T20:41:01Z</time>
      </trkpt>
      <trkpt lat="45.46552" lon="4.23427">
        <ele>483</ele>
        <time>2025-09-22T20:41:04Z</time>
      </trkpt>
      <trkpt lat="45.4655" lon="4.2345">
        <ele>484</ele>
        <time>2025-09-22T20:41:08Z</time>
      </trkpt>
      <trkpt lat="45.46542" lon="4.23459">
        <ele>485</ele>
        <time>2025-09-22T20:41:11Z</time>
      </trkpt>
      <trkpt lat="45.46512" lon="4.2346">
        <ele>488</ele>
        <time>2025-09-22T20:41:18Z</time>
      </trkpt>
      <trkpt lat="45.46495" lon="4.23454">
        <ele>490</ele>
        <time>2025-09-22T20:41:22Z</time>
      </trkpt>
      <trkpt lat="45.4647" lon="4.23437">
        <ele>493</ele>
        <time>2025-09-22T20:41:28Z</time>
      </trkpt>
      <trkpt lat="45.46456" lon="4.23433">
        <ele>495</ele>
        <time>2025-09-22T20:41:31Z</time>
      </trkpt>
      <trkpt lat="45.4645" lon="4.23433">
        <ele>495</ele>
        <time>2025-09-22T20:41:33Z</time>
      </trkpt>
      <trkpt lat="45.46445" lon="4.23436">
        <ele>496</ele>
        <time>2025-09-22T20:41:34Z</time>
      </trkpt>
      <trkpt lat="45.46409" lon="4.23426">
        <ele>500</ele>
        <time>2025-09-22T20:41:43Z</time>
      </trkpt>
      <trkpt lat="45.46393" lon="4.23414">
        <ele>502</ele>
        <time>2025-09-22T20:41:47Z</time>
      </trkpt>
      <trkpt lat="45.46387" lon="4.23414">
        <ele>503</ele>
        <time>2025-09-22T20:41:48Z</time>
      </trkpt>
      <trkpt lat="45.46379" lon="4.2341">
        <ele>504</ele>
        <time>2025-09-22T20:41:50Z</time>
      </trkpt>
      <trkpt lat="45.4635" lon="4.23387">
        <ele>505</ele>
        <time>2025-09-22T20:41:58Z</time>
      </trkpt>
      <trkpt lat="45.46342" lon="4.23385">
        <ele>506</ele>
        <time>2025-09-22T20:42:00Z</time>
      </trkpt>
      <trkpt lat="45.46321" lon="4.23399">
        <ele>509</ele>
        <time>2025-09-22T20:42:05Z</time>
      </trkpt>
      <trkpt lat="45.46303" lon="4.23424">
        <ele>511</ele>
        <time>2025-09-22T20:42:11Z</time>
      </trkpt>
      <trkpt lat="45.46287" lon="4.23439">
        <ele>511</ele>
        <time>2025-09-22T20:42:16Z</time>
      </trkpt>
      <trkpt lat="45.46254" lon="4.2346">
        <ele>512</ele>
        <time>2025-09-22T20:42:24Z</time>
      </trkpt>
      <trkpt lat="45.46236" lon="4.23486">
        <ele>511</ele>
        <time>2025-09-22T20:42:30Z</time>
      </trkpt>
      <trkpt lat="45.46225" lon="4.23509">
        <ele>508</ele>
        <time>2025-09-22T20:42:35Z</time>
      </trkpt>
      <trkpt lat="45.46215" lon="4.23519">
        <ele>506</ele>
        <time>2025-09-22T20:42:37Z</time>
      </trkpt>
      <trkpt lat="45.46204" lon="4.23525">
        <ele>505</ele>
        <time>2025-09-22T20:42:40Z</time>
      </trkpt>
      <trkpt lat="45.46198" lon="4.23527">
        <ele>505</ele>
        <time>2025-09-22T20:42:42Z</time>
      </trkpt>
      <trkpt lat="45.46143" lon="4.23526">
        <ele>507</ele>
        <time>2025-09-22T20:42:55Z</time>
      </trkpt>
      <trkpt lat="45.46113" lon="4.23529">
        <ele>505</ele>
        <time>2025-09-22T20:43:02Z</time>
      </trkpt>
      <trkpt lat="45.46065" lon="4.2351">
        <ele>509</ele>
        <time>2025-09-22T20:43:13Z</time>
      </trkpt>
      <trkpt lat="45.4605" lon="4.23507">
        <ele>510</ele>
        <time>2025-09-22T20:43:17Z</time>
      </trkpt>
      <trkpt lat="45.46036" lon="4.23514">
        <ele>509</ele>
        <time>2025-09-22T20:43:20Z</time>
      </trkpt>
      <trkpt lat="45.46002" lon="4.23518">
        <ele>509</ele>
        <time>2025-09-22T20:43:28Z</time>
      </trkpt>
      <trkpt lat="45.45983" lon="4.23524">
        <ele>509</ele>
        <time>2025-09-22T20:43:33Z</time>
      </trkpt>
      <trkpt lat="45.45968" lon="4.23524">
        <ele>510</ele>
        <time>2025-09-22T20:43:36Z</time>
      </trkpt>
      <trkpt lat="45.45953" lon="4.23519">
        <ele>511</ele>
        <time>2025-09-22T20:43:40Z</time>
      </trkpt>
      <trkpt lat="45.45945" lon="4.23519">
        <ele>511</ele>
        <time>2025-09-22T20:43:42Z</time>
      </trkpt>
      <trkpt lat="45.45939" lon="4.23523">
        <ele>511</ele>
        <time>2025-09-22T20:43:43Z</time>
      </trkpt>
      <trkpt lat="45.45937" lon="4.23527">
        <ele>512</ele>
        <time>2025-09-22T20:43:44Z</time>
      </trkpt>
      <trkpt lat="45.45939" lon="4.23538">
        <ele>512</ele>
        <time>2025-09-22T20:43:46Z</time>
      </trkpt>
      <trkpt lat="45.45956" lon="4.23554">
        <ele>511</ele>
        <time>2025-09-22T20:43:51Z</time>
      </trkpt>
      <trkpt lat="45.4598" lon="4.23583">
        <ele>508</ele>
        <time>2025-09-22T20:43:58Z</time>
      </trkpt>
      <trkpt lat="45.45998" lon="4.23597">
        <ele>507</ele>
        <time>2025-09-22T20:44:03Z</time>
      </trkpt>
      <trkpt lat="45.46008" lon="4.236">
        <ele>506</ele>
        <time>2025-09-22T20:44:05Z</time>
      </trkpt>
      <trkpt lat="45.46019" lon="4.2361">
        <ele>505</ele>
        <time>2025-09-22T20:44:08Z</time>
      </trkpt>
      <trkpt lat="45.46036" lon="4.23637">
        <ele>504</ele>
        <time>2025-09-22T20:44:14Z</time>
      </trkpt>
      <trkpt lat="45.46039" lon="4.2365">
        <ele>504</ele>
        <time>2025-09-22T20:44:16Z</time>
      </trkpt>
      <trkpt lat="45.46029" lon="4.23669">
        <ele>508</ele>
        <time>2025-09-22T20:44:20Z</time>
      </trkpt>
      <trkpt lat="45.4602" lon="4.23694">
        <ele>514</ele>
        <time>2025-09-22T20:44:25Z</time>
      </trkpt>
      <trkpt lat="45.46022" lon="4.2371">
        <ele>516</ele>
        <time>2025-09-22T20:44:28Z</time>
      </trkpt>
      <trkpt lat="45.46029" lon="4.23715">
        <ele>515</ele>
        <time>2025-09-22T20:44:29Z</time>
      </trkpt>
      <trkpt lat="45.46049" lon="4.23717">
        <ele>510</ele>
        <time>2025-09-22T20:44:34Z</time>
      </trkpt>
      <trkpt lat="45.46077" lon="4.23748">
        <ele>509</ele>
        <time>2025-09-22T20:44:42Z</time>
      </trkpt>
      <trkpt lat="45.46086" lon="4.23767">
        <ele>509</ele>
        <time>2025-09-22T20:44:46Z</time>
      </trkpt>
      <trkpt lat="45.46087" lon="4.23774">
        <ele>510</ele>
        <time>2025-09-22T20:44:47Z</time>
      </trkpt>
      <trkpt lat="45.46081" lon="4.23789">
        <ele>513</ele>
        <time>2025-09-22T20:44:50Z</time>
      </trkpt>
      <trkpt lat="45.46049" lon="4.23811">
        <ele>523</ele>
        <time>2025-09-22T20:44:58Z</time>
      </trkpt>
      <trkpt lat="45.46041" lon="4.23819">
        <ele>526</ele>
        <time>2025-09-22T20:45:01Z</time>
      </trkpt>
      <trkpt lat="45.46037" lon="4.23831">
        <ele>529</ele>
        <time>2025-09-22T20:45:03Z</time>
      </trkpt>
      <trkpt lat="45.46041" lon="4.23844">
        <ele>531</ele>
        <time>2025-09-22T20:45:05Z</time>
      </trkpt>
      <trkpt lat="45.46057" lon="4.23862">
        <ele>532</ele>
        <time>2025-09-22T20:45:10Z</time>
      </trkpt>
      <trkpt lat="45.46066" lon="4.23867">
        <ele>532</ele>
        <time>2025-09-22T20:45:12Z</time>
      </trkpt>
      <trkpt lat="45.46078" lon="4.23869">
        <ele>530</ele>
        <time>2025-09-22T20:45:15Z</time>
      </trkpt>
      <trkpt lat="45.46112" lon="4.23891">
        <ele>528</ele>
        <time>2025-09-22T20:45:24Z</time>
      </trkpt>
      <trkpt lat="45.46158" lon="4.23931">
        <ele>526</ele>
        <time>2025-09-22T20:45:36Z</time>
      </trkpt>
      <trkpt lat="45.46185" lon="4.23968">
        <ele>528</ele>
        <time>2025-09-22T20:45:45Z</time>
      </trkpt>
      <trkpt lat="45.46208" lon="4.24015">
        <ele>529</ele>
        <time>2025-09-22T20:45:54Z</time>
      </trkpt>
      <trkpt lat="45.46209" lon="4.24037">
        <ele>532</ele>
        <time>2025-09-22T20:45:58Z</time>
      </trkpt>
      <trkpt lat="45.46206" lon="4.24052">
        <ele>535</ele>
        <time>2025-09-22T20:46:01Z</time>
      </trkpt>
      <trkpt lat="45.46195" lon="4.24079">
        <ele>543</ele>
        <time>2025-09-22T20:46:06Z</time>
      </trkpt>
      <trkpt lat="45.46195" lon="4.24089">
        <ele>545</ele>
        <time>2025-09-22T20:46:07Z</time>
      </trkpt>
      <trkpt lat="45.46204" lon="4.24117">
        <ele>545</ele>
        <time>2025-09-22T20:46:12Z</time>
      </trkpt>
      <trkpt lat="45.46218" lon="4.24133">
        <ele>542</ele>
        <time>2025-09-22T20:46:17Z</time>
      </trkpt>
      <trkpt lat="45.46217" lon="4.24142">
        <ele>544</ele>
        <time>2025-09-22T20:46:18Z</time>
      </trkpt>
      <trkpt lat="45.46191" lon="4.24125">
        <ele>550</ele>
        <time>2025-09-22T20:46:25Z</time>
      </trkpt>
      <trkpt lat="45.46179" lon="4.24109">
        <ele>553</ele>
        <time>2025-09-22T20:46:29Z</time>
      </trkpt>
      <trkpt lat="45.4617" lon="4.24088">
        <ele>554</ele>
        <time>2025-09-22T20:46:33Z</time>
      </trkpt>
      <trkpt lat="45.4617" lon="4.24065">
        <ele>551</ele>
        <time>2025-09-22T20:46:36Z</time>
      </trkpt>
      <trkpt lat="45.46166" lon="4.24063">
        <ele>552</ele>
        <time>2025-09-22T20:46:37Z</time>
      </trkpt>
      <trkpt lat="45.46163" lon="4.24064">
        <ele>553</ele>
        <time>2025-09-22T20:46:38Z</time>
      </trkpt>
      <trkpt lat="45.4616" lon="4.2407">
        <ele>555</ele>
        <time>2025-09-22T20:46:39Z</time>
      </trkpt>
      <trkpt lat="45.46159" lon="4.2409">
        <ele>558</ele>
        <time>2025-09-22T20:46:43Z</time>
      </trkpt>
      <trkpt lat="45.46161" lon="4.24103">
        <ele>558</ele>
        <time>2025-09-22T20:46:45Z</time>
      </trkpt>
      <trkpt lat="45.46167" lon="4.24117">
        <ele>557</ele>
        <time>2025-09-22T20:46:47Z</time>
      </trkpt>
      <trkpt lat="45.46169" lon="4.24134">
        <ele>558</ele>
        <time>2025-09-22T20:46:50Z</time>
      </trkpt>
      <trkpt lat="45.46173" lon="4.24143">
        <ele>557</ele>
        <time>2025-09-22T20:46:52Z</time>
      </trkpt>
      <trkpt lat="45.46175" lon="4.24161">
        <ele>558</ele>
        <time>2025-09-22T20:46:55Z</time>
      </trkpt>
      <trkpt lat="45.46183" lon="4.24188">
        <ele>557</ele>
        <time>2025-09-22T20:47:00Z</time>
      </trkpt>
      <trkpt lat="45.46186" lon="4.24208">
        <ele>557</ele>
        <time>2025-09-22T20:47:03Z</time>
      </trkpt>
      <trkpt lat="45.46179" lon="4.2428">
        <ele>560</ele>
        <time>2025-09-22T20:47:15Z</time>
      </trkpt>
      <trkpt lat="45.4618" lon="4.24294">
        <ele>560</ele>
        <time>2025-09-22T20:47:17Z</time>
      </trkpt>
      <trkpt lat="45.46189" lon="4.24324">
        <ele>559</ele>
        <time>2025-09-22T20:47:23Z</time>
      </trkpt>
      <trkpt lat="45.46188" lon="4.24392">
        <ele>563</ele>
        <time>2025-09-22T20:47:34Z</time>
      </trkpt>
      <trkpt lat="45.46196" lon="4.24477">
        <ele>563</ele>
        <time>2025-09-22T20:47:48Z</time>
      </trkpt>
      <trkpt lat="45.462" lon="4.24498">
        <ele>563</ele>
        <time>2025-09-22T20:47:51Z</time>
      </trkpt>
      <trkpt lat="45.46215" lon="4.24526">
        <ele>560</ele>
        <time>2025-09-22T20:47:57Z</time>
      </trkpt>
      <trkpt lat="45.46217" lon="4.24539">
        <ele>559</ele>
        <time>2025-09-22T20:47:59Z</time>
      </trkpt>
      <trkpt lat="45.46206" lon="4.24552">
        <ele>560</ele>
        <time>2025-09-22T20:48:03Z</time>
      </trkpt>
      <trkpt lat="45.46188" lon="4.24567">
        <ele>563</ele>
        <time>2025-09-22T20:48:08Z</time>
      </trkpt>
      <trkpt lat="45.46163" lon="4.24582">
        <ele>566</ele>
        <time>2025-09-22T20:48:14Z</time>
      </trkpt>
      <trkpt lat="45.46147" lon="4.24588">
        <ele>565</ele>
        <time>2025-09-22T20:48:18Z</time>
      </trkpt>
      <trkpt lat="45.46141" lon="4.24586">
        <ele>565</ele>
        <time>2025-09-22T20:48:19Z</time>
      </trkpt>
      <trkpt lat="45.46145" lon="4.2459">
        <ele>565</ele>
        <time>2025-09-22T20:48:20Z</time>
      </trkpt>
      <trkpt lat="45.46146" lon="4.24586">
        <ele>566</ele>
        <time>2025-09-22T20:48:21Z</time>
      </trkpt>
      <trkpt lat="45.46144" lon="4.24585">
        <ele>566</ele>
        <time>2025-09-22T20:48:22Z</time>
      </trkpt>
      <trkpt lat="45.46125" lon="4.24588">
        <ele>565</ele>
        <time>2025-09-22T20:48:26Z</time>
      </trkpt>
      <trkpt lat="45.46114" lon="4.24576">
        <ele>566</ele>
        <time>2025-09-22T20:48:29Z</time>
      </trkpt>
      <trkpt lat="45.46105" lon="4.2457">
        <ele>566</ele>
        <time>2025-09-22T20:48:32Z</time>
      </trkpt>
      <trkpt lat="45.46083" lon="4.24564">
        <ele>566</ele>
        <time>2025-09-22T20:48:37Z</time>
      </trkpt>
      <trkpt lat="45.46064" lon="4.24563">
        <ele>566</ele>
        <time>2025-09-22T20:48:41Z</time>
      </trkpt>
      <trkpt lat="45.46009" lon="4.2455">
        <ele>567</ele>
        <time>2025-09-22T20:48:54Z</time>
      </trkpt>
      <trkpt lat="45.45969" lon="4.24549">
        <ele>564</ele>
        <time>2025-09-22T20:49:04Z</time>
      </trkpt>
      <trkpt lat="45.4595" lon="4.24547">
        <ele>563</ele>
        <time>2025-09-22T20:49:08Z</time>
      </trkpt>
      <trkpt lat="45.45938" lon="4.24543">
        <ele>563</ele>
        <time>2025-09-22T20:49:11Z</time>
      </trkpt>
      <trkpt lat="45.45931" lon="4.24548">
        <ele>561</ele>
        <time>2025-09-22T20:49:13Z</time>
      </trkpt>
      <trkpt lat="45.45919" lon="4.24537">
        <ele>562</ele>
        <time>2025-09-22T20:49:16Z</time>
      </trkpt>
      <trkpt lat="45.45919" lon="4.24524">
        <ele>565</ele>
        <time>2025-09-22T20:49:18Z</time>
      </trkpt>
      <trkpt lat="45.4592" lon="4.24527">
        <ele>564</ele>
        <time>2025-09-22T20:49:19Z</time>
      </trkpt>
      <trkpt lat="45.45913" lon="4.24522">
        <ele>564</ele>
        <time>2025-09-22T20:49:21Z</time>
      </trkpt>
      <trkpt lat="45.45906" lon="4.24508">
        <ele>565</ele>
        <time>2025-09-22T20:49:23Z</time>
      </trkpt>
      <trkpt lat="45.45884" lon="4.24487">
        <ele>563</ele>
        <time>2025-09-22T20:49:30Z</time>
      </trkpt>
      <trkpt lat="45.45871" lon="4.24471">
        <ele>563</ele>
        <time>2025-09-22T20:49:34Z</time>
      </trkpt>
      <trkpt lat="45.45856" lon="4.24438">
        <ele>565</ele>
        <time>2025-09-22T20:49:40Z</time>
      </trkpt>
      <trkpt lat="45.45844" lon="4.24419">
        <ele>566</ele>
        <time>2025-09-22T20:49:44Z</time>
      </trkpt>
      <trkpt lat="45.45835" lon="4.2439">
        <ele>568</ele>
        <time>2025-09-22T20:49:49Z</time>
      </trkpt>
      <trkpt lat="45.4582" lon="4.24303">
        <ele>572</ele>
        <time>2025-09-22T20:50:04Z</time>
      </trkpt>
      <trkpt lat="45.45808" lon="4.24267">
        <ele>572</ele>
        <time>2025-09-22T20:50:11Z</time>
      </trkpt>
      <trkpt lat="45.45776" lon="4.24199">
        <ele>571</ele>
        <time>2025-09-22T20:50:24Z</time>
      </trkpt>
      <trkpt lat="45.45764" lon="4.24181">
        <ele>570</ele>
        <time>2025-09-22T20:50:28Z</time>
      </trkpt>
      <trkpt lat="45.45753" lon="4.24156">
        <ele>570</ele>
        <time>2025-09-22T20:50:33Z</time>
      </trkpt>
      <trkpt lat="45.45731" lon="4.24134">
        <ele>569</ele>
        <time>2025-09-22T20:50:39Z</time>
      </trkpt>
      <trkpt lat="45.45721" lon="4.24117">
        <ele>568</ele>
        <time>2025-09-22T20:50:43Z</time>
      </trkpt>
      <trkpt lat="45.45715" lon="4.24099">
        <ele>569</ele>
        <time>2025-09-22T20:50:46Z</time>
      </trkpt>
      <trkpt lat="45.45714" lon="4.24053">
        <ele>570</ele>
        <time>2025-09-22T20:50:54Z</time>
      </trkpt>
      <trkpt lat="45.45708" lon="4.24003">
        <ele>570</ele>
        <time>2025-09-22T20:51:02Z</time>
      </trkpt>
      <trkpt lat="45.45702" lon="4.23976">
        <ele>570</ele>
        <time>2025-09-22T20:51:07Z</time>
      </trkpt>
      <trkpt lat="45.45694" lon="4.23958">
        <ele>569</ele>
        <time>2025-09-22T20:51:10Z</time>
      </trkpt>
      <trkpt lat="45.45575" lon="4.23788">
        <ele>570</ele>
        <time>2025-09-22T20:51:50Z</time>
      </trkpt>
      <trkpt lat="45.45555" lon="4.2377">
        <ele>572</ele>
        <time>2025-09-22T20:51:55Z</time>
      </trkpt>
      <trkpt lat="45.45504" lon="4.23736">
        <ele>577</ele>
        <time>2025-09-22T20:52:08Z</time>
      </trkpt>
      <trkpt lat="45.45447" lon="4.23679">
        <ele>583</ele>
        <time>2025-09-22T20:52:24Z</time>
      </trkpt>
      <trkpt lat="45.45415" lon="4.23657">
        <ele>588</ele>
        <time>2025-09-22T20:52:33Z</time>
      </trkpt>
      <trkpt lat="45.45416" lon="4.23651">
        <ele>588</ele>
        <time>2025-09-22T20:52:34Z</time>
      </trkpt>
      <trkpt lat="45.45403" lon="4.23588">
        <ele>587</ele>
        <time>2025-09-22T20:52:44Z</time>
      </trkpt>
      <trkpt lat="45.45393" lon="4.23472">
        <ele>591</ele>
        <time>2025-09-22T20:53:04Z</time>
      </trkpt>
      <trkpt lat="45.45377" lon="4.23413">
        <ele>595</ele>
        <time>2025-09-22T20:53:14Z</time>
      </trkpt>
      <trkpt lat="45.45363" lon="4.23381">
        <ele>596</ele>
        <time>2025-09-22T20:53:20Z</time>
      </trkpt>
      <trkpt lat="45.45355" lon="4.23367">
        <ele>597</ele>
        <time>2025-09-22T20:53:23Z</time>
      </trkpt>
      <trkpt lat="45.45342" lon="4.23356">
        <ele>598</ele>
        <time>2025-09-22T20:53:27Z</time>
      </trkpt>
      <trkpt lat="45.45325" lon="4.23349">
        <ele>599</ele>
        <time>2025-09-22T20:53:31Z</time>
      </trkpt>
      <trkpt lat="45.45316" lon="4.2335">
        <ele>599</ele>
        <time>2025-09-22T20:53:33Z</time>
      </trkpt>
      <trkpt lat="45.45301" lon="4.23346">
        <ele>600</ele>
        <time>2025-09-22T20:53:36Z</time>
      </trkpt>
      <trkpt lat="45.45285" lon="4.2334">
        <ele>600</ele>
        <time>2025-09-22T20:53:40Z</time>
      </trkpt>
      <trkpt lat="45.45271" lon="4.23331">
        <ele>600</ele>
        <time>2025-09-22T20:53:44Z</time>
      </trkpt>
      <trkpt lat="45.45235" lon="4.23275">
        <ele>599</ele>
        <time>2025-09-22T20:53:56Z</time>
      </trkpt>
      <trkpt lat="45.45208" lon="4.23238">
        <ele>600</ele>
        <time>2025-09-22T20:54:05Z</time>
      </trkpt>
      <trkpt lat="45.45197" lon="4.23204">
        <ele>601</ele>
        <time>2025-09-22T20:54:11Z</time>
      </trkpt>
      <trkpt lat="45.45181" lon="4.23166">
        <ele>602</ele>
        <time>2025-09-22T20:54:19Z</time>
      </trkpt>
      <trkpt lat="45.45139" lon="4.23089">
        <ele>603</ele>
        <time>2025-09-22T20:54:34Z</time>
      </trkpt>
      <trkpt lat="45.45136" lon="4.23041">
        <ele>604</ele>
        <time>2025-09-22T20:54:42Z</time>
      </trkpt>
      <trkpt lat="45.45144" lon="4.23008">
        <ele>604</ele>
        <time>2025-09-22T20:54:48Z</time>
      </trkpt>
      <trkpt lat="45.45145" lon="4.22992">
        <ele>604</ele>
        <time>2025-09-22T20:54:51Z</time>
      </trkpt>
      <trkpt lat="45.45139" lon="4.22973">
        <ele>604</ele>
        <time>2025-09-22T20:54:54Z</time>
      </trkpt>
      <trkpt lat="45.45107" lon="4.22929">
        <ele>604</ele>
        <time>2025-09-22T20:55:05Z</time>
      </trkpt>
      <trkpt lat="45.45092" lon="4.2289">
        <ele>605</ele>
        <time>2025-09-22T20:55:12Z</time>
      </trkpt>
      <trkpt lat="45.45074" lon="4.2283">
        <ele>607</ele>
        <time>2025-09-22T20:55:23Z</time>
      </trkpt>
      <trkpt lat="45.45072" lon="4.22813">
        <ele>608</ele>
        <time>2025-09-22T20:55:25Z</time>
      </trkpt>
      <trkpt lat="45.45074" lon="4.2279">
        <ele>609</ele>
        <time>2025-09-22T20:55:29Z</time>
      </trkpt>
      <trkpt lat="45.45064" lon="4.22718">
        <ele>613</ele>
        <time>2025-09-22T20:55:41Z</time>
      </trkpt>
      <trkpt lat="45.45051" lon="4.2268">
        <ele>616</ele>
        <time>2025-09-22T20:55:48Z</time>
      </trkpt>
      <trkpt lat="45.45046" lon="4.22684">
        <ele>616</ele>
        <time>2025-09-22T20:55:49Z</time>
      </trkpt>
      <trkpt lat="45.45045" lon="4.22665">
        <ele>617</ele>
        <time>2025-09-22T20:55:53Z</time>
      </trkpt>
      <trkpt lat="45.45038" lon="4.22638">
        <ele>617</ele>
        <time>2025-09-22T20:55:57Z</time>
      </trkpt>
      <trkpt lat="45.4502" lon="4.22593">
        <ele>620</ele>
        <time>2025-09-22T20:56:06Z</time>
      </trkpt>
      <trkpt lat="45.45013" lon="4.22567">
        <ele>621</ele>
        <time>2025-09-22T20:56:10Z</time>
      </trkpt>
      <trkpt lat="45.45005" lon="4.22552">
        <ele>622</ele>
        <time>2025-09-22T20:56:13Z</time>
      </trkpt>
      <trkpt lat="45.45003" lon="4.22539">
        <ele>622</ele>
        <time>2025-09-22T20:56:16Z</time>
      </trkpt>
      <trkpt lat="45.44991" lon="4.22527">
        <ele>623</ele>
        <time>2025-09-22T20:56:19Z</time>
      </trkpt>
      <trkpt lat="45.44983" lon="4.22527">
        <ele>624</ele>
        <time>2025-09-22T20:56:21Z</time>
      </trkpt>
      <trkpt lat="45.44968" lon="4.22532">
        <ele>624</ele>
        <time>2025-09-22T20:56:24Z</time>
      </trkpt>
      <trkpt lat="45.44938" lon="4.2253">
        <ele>626</ele>
        <time>2025-09-22T20:56:31Z</time>
      </trkpt>
      <trkpt lat="45.44895" lon="4.22519">
        <ele>629</ele>
        <time>2025-09-22T20:56:42Z</time>
      </trkpt>
      <trkpt lat="45.44891" lon="4.22516">
        <ele>630</ele>
        <time>2025-09-22T20:56:43Z</time>
      </trkpt>
      <trkpt lat="45.4486" lon="4.2251">
        <ele>632</ele>
        <time>2025-09-22T20:56:50Z</time>
      </trkpt>
      <trkpt lat="45.44851" lon="4.22505">
        <ele>634</ele>
        <time>2025-09-22T20:56:52Z</time>
      </trkpt>
      <trkpt lat="45.4485" lon="4.22496">
        <ele>635</ele>
        <time>2025-09-22T20:56:54Z</time>
      </trkpt>
      <trkpt lat="45.44864" lon="4.22478">
        <ele>637</ele>
        <time>2025-09-22T20:56:58Z</time>
      </trkpt>
      <trkpt lat="45.44878" lon="4.22429">
        <ele>641</ele>
        <time>2025-09-22T20:57:07Z</time>
      </trkpt>
      <trkpt lat="45.44886" lon="4.22354">
        <ele>646</ele>
        <time>2025-09-22T20:57:19Z</time>
      </trkpt>
      <trkpt lat="45.449" lon="4.22324">
        <ele>645</ele>
        <time>2025-09-22T20:57:25Z</time>
      </trkpt>
      <trkpt lat="45.44908" lon="4.22294">
        <ele>645</ele>
        <time>2025-09-22T20:57:30Z</time>
      </trkpt>
      <trkpt lat="45.44921" lon="4.22264">
        <ele>644</ele>
        <time>2025-09-22T20:57:36Z</time>
      </trkpt>
      <trkpt lat="45.44924" lon="4.22245">
        <ele>644</ele>
        <time>2025-09-22T20:57:39Z</time>
      </trkpt>
      <trkpt lat="45.4494" lon="4.2221">
        <ele>645</ele>
        <time>2025-09-22T20:57:46Z</time>
      </trkpt>
      <trkpt lat="45.44949" lon="4.22196">
        <ele>645</ele>
        <time>2025-09-22T20:57:49Z</time>
      </trkpt>
      <trkpt lat="45.44959" lon="4.22163">
        <ele>646</ele>
        <time>2025-09-22T20:57:55Z</time>
      </trkpt>
      <trkpt lat="45.44958" lon="4.22145">
        <ele>646</ele>
        <time>2025-09-22T20:57:58Z</time>
      </trkpt>
      <trkpt lat="45.44952" lon="4.2214">
        <ele>647</ele>
        <time>2025-09-22T20:58:00Z</time>
      </trkpt>
      <trkpt lat="45.44948" lon="4.22132">
        <ele>648</ele>
        <time>2025-09-22T20:58:01Z</time>
      </trkpt>
      <trkpt lat="45.44947" lon="4.22108">
        <ele>648</ele>
        <time>2025-09-22T20:58:05Z</time>
      </trkpt>
      <trkpt lat="45.4495" lon="4.22063">
        <ele>648</ele>
        <time>2025-09-22T20:58:13Z</time>
      </trkpt>
      <trkpt lat="45.44955" lon="4.22042">
        <ele>648</ele>
        <time>2025-09-22T20:58:16Z</time>
      </trkpt>
      <trkpt lat="45.44962" lon="4.21966">
        <ele>649</ele>
        <time>2025-09-22T20:58:29Z</time>
      </trkpt>
      <trkpt lat="45.44957" lon="4.21944">
        <ele>650</ele>
        <time>2025-09-22T20:58:33Z</time>
      </trkpt>
      <trkpt lat="45.4495" lon="4.21926">
        <ele>650</ele>
        <time>2025-09-22T20:58:36Z</time>
      </trkpt>
      <trkpt lat="45.44945" lon="4.21894">
        <ele>651</ele>
        <time>2025-09-22T20:58:42Z</time>
      </trkpt>
      <trkpt lat="45.44942" lon="4.21814">
        <ele>651</ele>
        <time>2025-09-22T20:58:55Z</time>
      </trkpt>
      <trkpt lat="45.44944" lon="4.21783">
        <ele>650</ele>
        <time>2025-09-22T20:59:00Z</time>
      </trkpt>
      <trkpt lat="45.44942" lon="4.21776">
        <ele>650</ele>
        <time>2025-09-22T20:59:01Z</time>
      </trkpt>
      <trkpt lat="45.44946" lon="4.21771">
        <ele>649</ele>
        <time>2025-09-22T20:59:02Z</time>
      </trkpt>
      <trkpt lat="45.4495" lon="4.21777">
        <ele>649</ele>
        <time>2025-09-22T20:59:04Z</time>
      </trkpt>
      <trkpt lat="45.44955" lon="4.21775">
        <ele>649</ele>
        <time>2025-09-22T20:59:05Z</time>
      </trkpt>
      <trkpt lat="45.44955" lon="4.21742">
        <ele>647</ele>
        <time>2025-09-22T20:59:10Z</time>
      </trkpt>
      <trkpt lat="45.44958" lon="4.21727">
        <ele>645</ele>
        <time>2025-09-22T20:59:13Z</time>
      </trkpt>
      <trkpt lat="45.44969" lon="4.21706">
        <ele>642</ele>
        <time>2025-09-22T20:59:17Z</time>
      </trkpt>
      <trkpt lat="45.44978" lon="4.21697">
        <ele>640</ele>
        <time>2025-09-22T20:59:20Z</time>
      </trkpt>
      <trkpt lat="45.44984" lon="4.21685">
        <ele>638</ele>
        <time>2025-09-22T20:59:22Z</time>
      </trkpt>
      <trkpt lat="45.4499" lon="4.2168">
        <ele>637</ele>
        <time>2025-09-22T20:59:24Z</time>
      </trkpt>
      <trkpt lat="45.44996" lon="4.21664">
        <ele>634</ele>
        <time>2025-09-22T20:59:27Z</time>
      </trkpt>
      <trkpt lat="45.45007" lon="4.21646">
        <ele>632</ele>
        <time>2025-09-22T20:59:31Z</time>
      </trkpt>
      <trkpt lat="45.45011" lon="4.21628">
        <ele>630</ele>
        <time>2025-09-22T20:59:34Z</time>
      </trkpt>
      <trkpt lat="45.4501" lon="4.21593">
        <ele>626</ele>
        <time>2025-09-22T20:59:39Z</time>
      </trkpt>
      <trkpt lat="45.45013" lon="4.21577">
        <ele>624</ele>
        <time>2025-09-22T20:59:42Z</time>
      </trkpt>
      <trkpt lat="45.45016" lon="4.21571">
        <ele>623</ele>
        <time>2025-09-22T20:59:43Z</time>
      </trkpt>
      <trkpt lat="45.45031" lon="4.21556">
        <ele>620</ele>
        <time>2025-09-22T20:59:48Z</time>
      </trkpt>
      <trkpt lat="45.45052" lon="4.21516">
        <ele>614</ele>
        <time>2025-09-22T20:59:56Z</time>
      </trkpt>
      <trkpt lat="45.45064" lon="4.21504">
        <ele>612</ele>
        <time>2025-09-22T20:59:59Z</time>
      </trkpt>
      <trkpt lat="45.45068" lon="4.21469">
        <ele>612</ele>
        <time>2025-09-22T21:00:05Z</time>
      </trkpt>
      <trkpt lat="45.45072" lon="4.21458">
        <ele>612</ele>
        <time>2025-09-22T21:00:07Z</time>
      </trkpt>
      <trkpt lat="45.45078" lon="4.21452">
        <ele>612</ele>
        <time>2025-09-22T21:00:09Z</time>
      </trkpt>
      <trkpt lat="45.45085" lon="4.21451">
        <ele>611</ele>
        <time>2025-09-22T21:00:10Z</time>
      </trkpt>
      <trkpt lat="45.45096" lon="4.21453">
        <ele>611</ele>
        <time>2025-09-22T21:00:13Z</time>
      </trkpt>
      <trkpt lat="45.45113" lon="4.21452">
        <ele>610</ele>
        <time>2025-09-22T21:00:17Z</time>
      </trkpt>
      <trkpt lat="45.45152" lon="4.21466">
        <ele>608</ele>
        <time>2025-09-22T21:00:26Z</time>
      </trkpt>
      <trkpt lat="45.45162" lon="4.21459">
        <ele>608</ele>
        <time>2025-09-22T21:00:29Z</time>
      </trkpt>
      <trkpt lat="45.45177" lon="4.21409">
        <ele>611</ele>
        <time>2025-09-22T21:00:38Z</time>
      </trkpt>
      <trkpt lat="45.45194" lon="4.21374">
        <ele>612</ele>
        <time>2025-09-22T21:00:45Z</time>
      </trkpt>
      <trkpt lat="45.45205" lon="4.21357">
        <ele>612</ele>
        <time>2025-09-22T21:00:49Z</time>
      </trkpt>
      <trkpt lat="45.45262" lon="4.21215">
        <ele>611</ele>
        <time>2025-09-22T21:01:15Z</time>
      </trkpt>
      <trkpt lat="45.45339" lon="4.21105">
        <ele>608</ele>
        <time>2025-09-22T21:01:41Z</time>
      </trkpt>
      <trkpt lat="45.45369" lon="4.21052">
        <ele>605</ele>
        <time>2025-09-22T21:01:52Z</time>
      </trkpt>
      <trkpt lat="45.45374" lon="4.21039">
        <ele>604</ele>
        <time>2025-09-22T21:01:54Z</time>
      </trkpt>
      <trkpt lat="45.45375" lon="4.21029">
        <ele>604</ele>
        <time>2025-09-22T21:01:56Z</time>
      </trkpt>
      <trkpt lat="45.45354" lon="4.20974">
        <ele>604</ele>
        <time>2025-09-22T21:02:06Z</time>
      </trkpt>
      <trkpt lat="45.45348" lon="4.20945">
        <ele>605</ele>
        <time>2025-09-22T21:02:11Z</time>
      </trkpt>
      <trkpt lat="45.45346" lon="4.20915">
        <ele>604</ele>
        <time>2025-09-22T21:02:16Z</time>
      </trkpt>
      <trkpt lat="45.4535" lon="4.20906">
        <ele>604</ele>
        <time>2025-09-22T21:02:18Z</time>
      </trkpt>
      <trkpt lat="45.45365" lon="4.20886">
        <ele>603</ele>
        <time>2025-09-22T21:02:23Z</time>
      </trkpt>
      <trkpt lat="45.45373" lon="4.20869">
        <ele>602</ele>
        <time>2025-09-22T21:02:26Z</time>
      </trkpt>
      <trkpt lat="45.45373" lon="4.20814">
        <ele>604</ele>
        <time>2025-09-22T21:02:35Z</time>
      </trkpt>
      <trkpt lat="45.45376" lon="4.20798">
        <ele>605</ele>
        <time>2025-09-22T21:02:38Z</time>
      </trkpt>
      <trkpt lat="45.45382" lon="4.20796">
        <ele>604</ele>
        <time>2025-09-22T21:02:39Z</time>
      </trkpt>
      <trkpt lat="45.45387" lon="4.20798">
        <ele>604</ele>
        <time>2025-09-22T21:02:41Z</time>
      </trkpt>
      <trkpt lat="45.45403" lon="4.20813">
        <ele>601</ele>
        <time>2025-09-22T21:02:45Z</time>
      </trkpt>
      <trkpt lat="45.45418" lon="4.20816">
        <ele>599</ele>
        <time>2025-09-22T21:02:49Z</time>
      </trkpt>
      <trkpt lat="45.45444" lon="4.20804">
        <ele>599</ele>
        <time>2025-09-22T21:02:55Z</time>
      </trkpt>
      <trkpt lat="45.45455" lon="4.20794">
        <ele>600</ele>
        <time>2025-09-22T21:02:58Z</time>
      </trkpt>
      <trkpt lat="45.45461" lon="4.20779">
        <ele>601</ele>
        <time>2025-09-22T21:03:01Z</time>
      </trkpt>
      <trkpt lat="45.45478" lon="4.20715">
        <ele>603</ele>
        <time>2025-09-22T21:03:12Z</time>
      </trkpt>
      <trkpt lat="45.45542" lon="4.20561">
        <ele>597</ele>
        <time>2025-09-22T21:03:41Z</time>
      </trkpt>
      <trkpt lat="45.45576" lon="4.20454">
        <ele>593</ele>
        <time>2025-09-22T21:04:01Z</time>
      </trkpt>
      <trkpt lat="45.45594" lon="4.20426">
        <ele>591</ele>
        <time>2025-09-22T21:04:07Z</time>
      </trkpt>
      <trkpt lat="45.45626" lon="4.20387">
        <ele>588</ele>
        <time>2025-09-22T21:04:17Z</time>
      </trkpt>
      <trkpt lat="45.45639" lon="4.20376">
        <ele>587</ele>
        <time>2025-09-22T21:04:20Z</time>
      </trkpt>
      <trkpt lat="45.45687" lon="4.20366">
        <ele>583</ele>
        <time>2025-09-22T21:04:31Z</time>
      </trkpt>
      <trkpt lat="45.45733" lon="4.20344">
        <ele>580</ele>
        <time>2025-09-22T21:04:43Z</time>
      </trkpt>
      <trkpt lat="45.45755" lon="4.20343">
        <ele>579</ele>
        <time>2025-09-22T21:04:48Z</time>
      </trkpt>
      <trkpt lat="45.45787" lon="4.20327">
        <ele>577</ele>
        <time>2025-09-22T21:04:56Z</time>
      </trkpt>
      <trkpt lat="45.45819" lon="4.20323">
        <ele>575</ele>
        <time>2025-09-22T21:05:03Z</time>
      </trkpt>
      <trkpt lat="45.45883" lon="4.20308">
        <ele>570</ele>
        <time>2025-09-22T21:05:19Z</time>
      </trkpt>
      <trkpt lat="45.45921" lon="4.20293">
        <ele>566</ele>
        <time>2025-09-22T21:05:28Z</time>
      </trkpt>
      <trkpt lat="45.45939" lon="4.20283">
        <ele>565</ele>
        <time>2025-09-22T21:05:32Z</time>
      </trkpt>
      <trkpt lat="45.45961" lon="4.20268">
        <ele>563</ele>
        <time>2025-09-22T21:05:38Z</time>
      </trkpt>
      <trkpt lat="45.46004" lon="4.20228">
        <ele>559</ele>
        <time>2025-09-22T21:05:50Z</time>
      </trkpt>
      <trkpt lat="45.46088" lon="4.20176">
        <ele>553</ele>
        <time>2025-09-22T21:06:11Z</time>
      </trkpt>
      <trkpt lat="45.46141" lon="4.20134">
        <ele>553</ele>
        <time>2025-09-22T21:06:25Z</time>
      </trkpt>
      <trkpt lat="45.46153" lon="4.20122">
        <ele>552</ele>
        <time>2025-09-22T21:06:29Z</time>
      </trkpt>
      <trkpt lat="45.46183" lon="4.20102">
        <ele>551</ele>
        <time>2025-09-22T21:06:37Z</time>
      </trkpt>
      <trkpt lat="45.46239" lon="4.2008">
        <ele>547</ele>
        <time>2025-09-22T21:06:50Z</time>
      </trkpt>
      <trkpt lat="45.46258" lon="4.20067">
        <ele>546</ele>
        <time>2025-09-22T21:06:55Z</time>
      </trkpt>
      <trkpt lat="45.46283" lon="4.20041">
        <ele>544</ele>
        <time>2025-09-22T21:07:02Z</time>
      </trkpt>
      <trkpt lat="45.46303" lon="4.2001">
        <ele>543</ele>
        <time>2025-09-22T21:07:09Z</time>
      </trkpt>
      <trkpt lat="45.46322" lon="4.19988">
        <ele>543</ele>
        <time>2025-09-22T21:07:15Z</time>
      </trkpt>
      <trkpt lat="45.46333" lon="4.19989">
        <ele>541</ele>
        <time>2025-09-22T21:07:18Z</time>
      </trkpt>
      <trkpt lat="45.46358" lon="4.20002">
        <ele>538</ele>
        <time>2025-09-22T21:07:24Z</time>
      </trkpt>
      <trkpt lat="45.46428" lon="4.20016">
        <ele>531</ele>
        <time>2025-09-22T21:07:40Z</time>
      </trkpt>
      <trkpt lat="45.4644" lon="4.20026">
        <ele>530</ele>
        <time>2025-09-22T21:07:43Z</time>
      </trkpt>
      <trkpt lat="45.46462" lon="4.20051">
        <ele>526</ele>
        <time>2025-09-22T21:07:50Z</time>
      </trkpt>
      <trkpt lat="45.46474" lon="4.20057">
        <ele>525</ele>
        <time>2025-09-22T21:07:53Z</time>
      </trkpt>
      <trkpt lat="45.46485" lon="4.20059">
        <ele>524</ele>
        <time>2025-09-22T21:07:56Z</time>
      </trkpt>
      <trkpt lat="45.46501" lon="4.20059">
        <ele>523</ele>
        <time>2025-09-22T21:07:59Z</time>
      </trkpt>
      <trkpt lat="45.4652" lon="4.20055">
        <ele>521</ele>
        <time>2025-09-22T21:08:04Z</time>
      </trkpt>
      <trkpt lat="45.46543" lon="4.20043">
        <ele>520</ele>
        <time>2025-09-22T21:08:10Z</time>
      </trkpt>
      <trkpt lat="45.46592" lon="4.20024">
        <ele>518</ele>
        <time>2025-09-22T21:08:21Z</time>
      </trkpt>
      <trkpt lat="45.46628" lon="4.20029">
        <ele>514</ele>
        <time>2025-09-22T21:08:30Z</time>
      </trkpt>
      <trkpt lat="45.46637" lon="4.20019">
        <ele>514</ele>
        <time>2025-09-22T21:08:33Z</time>
      </trkpt>
      <trkpt lat="45.46647" lon="4.19992">
        <ele>516</ele>
        <time>2025-09-22T21:08:38Z</time>
      </trkpt>
      <trkpt lat="45.46651" lon="4.19972">
        <ele>517</ele>
        <time>2025-09-22T21:08:41Z</time>
      </trkpt>
      <trkpt lat="45.46648" lon="4.19946">
        <ele>518</ele>
        <time>2025-09-22T21:08:45Z</time>
      </trkpt>
      <trkpt lat="45.4665" lon="4.19928">
        <ele>519</ele>
        <time>2025-09-22T21:08:48Z</time>
      </trkpt>
      <trkpt lat="45.46673" lon="4.19869">
        <ele>520</ele>
        <time>2025-09-22T21:08:59Z</time>
      </trkpt>
      <trkpt lat="45.46695" lon="4.19802">
        <ele>519</ele>
        <time>2025-09-22T21:09:11Z</time>
      </trkpt>
      <trkpt lat="45.46706" lon="4.19754">
        <ele>519</ele>
        <time>2025-09-22T21:09:20Z</time>
      </trkpt>
      <trkpt lat="45.46714" lon="4.19698">
        <ele>519</ele>
        <time>2025-09-22T21:09:29Z</time>
      </trkpt>
      <trkpt lat="45.46718" lon="4.1969">
        <ele>519</ele>
        <time>2025-09-22T21:09:31Z</time>
      </trkpt>
      <trkpt lat="45.46781" lon="4.19618">
        <ele>512</ele>
        <time>2025-09-22T21:09:50Z</time>
      </trkpt>
      <trkpt lat="45.4679" lon="4.1961">
        <ele>511</ele>
        <time>2025-09-22T21:09:52Z</time>
      </trkpt>
      <trkpt lat="45.46844" lon="4.19614">
        <ele>506</ele>
        <time>2025-09-22T21:10:05Z</time>
      </trkpt>
      <trkpt lat="45.46864" lon="4.19605">
        <ele>505</ele>
        <time>2025-09-22T21:10:10Z</time>
      </trkpt>
      <trkpt lat="45.46895" lon="4.19608">
        <ele>501</ele>
        <time>2025-09-22T21:10:17Z</time>
      </trkpt>
      <trkpt lat="45.46916" lon="4.19602">
        <ele>499</ele>
        <time>2025-09-22T21:10:22Z</time>
      </trkpt>
      <trkpt lat="45.46932" lon="4.19586">
        <ele>499</ele>
        <time>2025-09-22T21:10:26Z</time>
      </trkpt>
      <trkpt lat="45.46939" lon="4.19573">
        <ele>498</ele>
        <time>2025-09-22T21:10:29Z</time>
      </trkpt>
      <trkpt lat="45.46961" lon="4.19554">
        <ele>495</ele>
        <time>2025-09-22T21:10:35Z</time>
      </trkpt>
      <trkpt lat="45.46973" lon="4.19539">
        <ele>493</ele>
        <time>2025-09-22T21:10:39Z</time>
      </trkpt>
      <trkpt lat="45.46987" lon="4.19528">
        <ele>491</ele>
        <time>2025-09-22T21:10:42Z</time>
      </trkpt>
      <trkpt lat="45.46992" lon="4.19507">
        <ele>489</ele>
        <time>2025-09-22T21:10:46Z</time>
      </trkpt>
      <trkpt lat="45.46998" lon="4.19493">
        <ele>488</ele>
        <time>2025-09-22T21:10:49Z</time>
      </trkpt>
      <trkpt lat="45.47008" lon="4.1948">
        <ele>486</ele>
        <time>2025-09-22T21:10:52Z</time>
      </trkpt>
      <trkpt lat="45.47022" lon="4.19477">
        <ele>485</ele>
        <time>2025-09-22T21:10:55Z</time>
      </trkpt>
      <trkpt lat="45.47052" lon="4.19478">
        <ele>483</ele>
        <time>2025-09-22T21:11:02Z</time>
      </trkpt>
      <trkpt lat="45.4711" lon="4.19472">
        <ele>478</ele>
        <time>2025-09-22T21:11:16Z</time>
      </trkpt>
      <trkpt lat="45.47143" lon="4.19466">
        <ele>475</ele>
        <time>2025-09-22T21:11:24Z</time>
      </trkpt>
      <trkpt lat="45.47179" lon="4.19442">
        <ele>470</ele>
        <time>2025-09-22T21:11:33Z</time>
      </trkpt>
      <trkpt lat="45.47202" lon="4.19436">
        <ele>466</ele>
        <time>2025-09-22T21:11:38Z</time>
      </trkpt>
      <trkpt lat="45.47211" lon="4.19429">
        <ele>464</ele>
        <time>2025-09-22T21:11:41Z</time>
      </trkpt>
      <trkpt lat="45.47219" lon="4.19416">
        <ele>462</ele>
        <time>2025-09-22T21:11:44Z</time>
      </trkpt>
      <trkpt lat="45.47232" lon="4.19386">
        <ele>458</ele>
        <time>2025-09-22T21:11:49Z</time>
      </trkpt>
      <trkpt lat="45.47236" lon="4.19322">
        <ele>454</ele>
        <time>2025-09-22T21:12:00Z</time>
      </trkpt>
      <trkpt lat="45.47227" lon="4.19262">
        <ele>451</ele>
        <time>2025-09-22T21:12:10Z</time>
      </trkpt>
      <trkpt lat="45.47205" lon="4.19172">
        <ele>446</ele>
        <time>2025-09-22T21:12:26Z</time>
      </trkpt>
      <trkpt lat="45.47198" lon="4.19112">
        <ele>440</ele>
        <time>2025-09-22T21:12:36Z</time>
      </trkpt>
      <trkpt lat="45.4719" lon="4.19084">
        <ele>438</ele>
        <time>2025-09-22T21:12:40Z</time>
      </trkpt>
      <trkpt lat="45.47182" lon="4.19066">
        <ele>437</ele>
        <time>2025-09-22T21:12:44Z</time>
      </trkpt>
      <trkpt lat="45.47159" lon="4.19034">
        <ele>436</ele>
        <time>2025-09-22T21:12:51Z</time>
      </trkpt>
      <trkpt lat="45.47148" lon="4.19014">
        <ele>435</ele>
        <time>2025-09-22T21:12:56Z</time>
      </trkpt>
      <trkpt lat="45.47137" lon="4.18956">
        <ele>430</ele>
        <time>2025-09-22T21:13:05Z</time>
      </trkpt>
      <trkpt lat="45.47131" lon="4.1894">
        <ele>429</ele>
        <time>2025-09-22T21:13:08Z</time>
      </trkpt>
      <trkpt lat="45.47124" lon="4.18929">
        <ele>428</ele>
        <time>2025-09-22T21:13:11Z</time>
      </trkpt>
      <trkpt lat="45.47117" lon="4.18906">
        <ele>427</ele>
        <time>2025-09-22T21:13:15Z</time>
      </trkpt>
      <trkpt lat="45.47118" lon="4.189">
        <ele>427</ele>
        <time>2025-09-22T21:13:16Z</time>
      </trkpt>
      <trkpt lat="45.47141" lon="4.18878">
        <ele>424</ele>
        <time>2025-09-22T21:13:22Z</time>
      </trkpt>
      <trkpt lat="45.47148" lon="4.18863">
        <ele>424</ele>
        <time>2025-09-22T21:13:25Z</time>
      </trkpt>
      <trkpt lat="45.47147" lon="4.1885">
        <ele>423</ele>
        <time>2025-09-22T21:13:28Z</time>
      </trkpt>
      <trkpt lat="45.47131" lon="4.18826">
        <ele>424</ele>
        <time>2025-09-22T21:13:33Z</time>
      </trkpt>
      <trkpt lat="45.47128" lon="4.18818">
        <ele>424</ele>
        <time>2025-09-22T21:13:34Z</time>
      </trkpt>
      <trkpt lat="45.47129" lon="4.18782">
        <ele>423</ele>
        <time>2025-09-22T21:13:40Z</time>
      </trkpt>
      <trkpt lat="45.47107" lon="4.18699">
        <ele>424</ele>
        <time>2025-09-22T21:13:55Z</time>
      </trkpt>
      <trkpt lat="45.47107" lon="4.18692">
        <ele>425</ele>
        <time>2025-09-22T21:13:56Z</time>
      </trkpt>
      <trkpt lat="45.47112" lon="4.18679">
        <ele>425</ele>
        <time>2025-09-22T21:13:58Z</time>
      </trkpt>
      <trkpt lat="45.47133" lon="4.18637">
        <ele>432</ele>
        <time>2025-09-22T21:14:07Z</time>
      </trkpt>
      <trkpt lat="45.47133" lon="4.18626">
        <ele>433</ele>
        <time>2025-09-22T21:14:09Z</time>
      </trkpt>
      <trkpt lat="45.47119" lon="4.18616">
        <ele>434</ele>
        <time>2025-09-22T21:14:12Z</time>
      </trkpt>
      <trkpt lat="45.47092" lon="4.18602">
        <ele>433</ele>
        <time>2025-09-22T21:14:19Z</time>
      </trkpt>
      <trkpt lat="45.47046" lon="4.18571">
        <ele>438</ele>
        <time>2025-09-22T21:14:31Z</time>
      </trkpt>
      <trkpt lat="45.47027" lon="4.18565">
        <ele>440</ele>
        <time>2025-09-22T21:14:35Z</time>
      </trkpt>
      <trkpt lat="45.46993" lon="4.18547">
        <ele>443</ele>
        <time>2025-09-22T21:14:44Z</time>
      </trkpt>
      <trkpt lat="45.46979" lon="4.18542">
        <ele>444</ele>
        <time>2025-09-22T21:14:47Z</time>
      </trkpt>
      <trkpt lat="45.46967" lon="4.18531">
        <ele>445</ele>
        <time>2025-09-22T21:14:51Z</time>
      </trkpt>
      <trkpt lat="45.46963" lon="4.18531">
        <ele>445</ele>
        <time>2025-09-22T21:14:52Z</time>
      </trkpt>
      <trkpt lat="45.4695" lon="4.18522">
        <ele>446</ele>
        <time>2025-09-22T21:14:55Z</time>
      </trkpt>
      <trkpt lat="45.46939" lon="4.18511">
        <ele>448</ele>
        <time>2025-09-22T21:14:58Z</time>
      </trkpt>
      <trkpt lat="45.46919" lon="4.18503">
        <ele>448</ele>
        <time>2025-09-22T21:15:03Z</time>
      </trkpt>
      <trkpt lat="45.46865" lon="4.18467">
        <ele>452</ele>
        <time>2025-09-22T21:15:17Z</time>
      </trkpt>
      <trkpt lat="45.46805" lon="4.18431">
        <ele>455</ele>
        <time>2025-09-22T21:15:32Z</time>
      </trkpt>
      <trkpt lat="45.468" lon="4.18426">
        <ele>456</ele>
        <time>2025-09-22T21:15:34Z</time>
      </trkpt>
      <trkpt lat="45.46798" lon="4.1842">
        <ele>457</ele>
        <time>2025-09-22T21:15:35Z</time>
      </trkpt>
      <trkpt lat="45.468" lon="4.18415">
        <ele>458</ele>
        <time>2025-09-22T21:15:36Z</time>
      </trkpt>
      <trkpt lat="45.46803" lon="4.18414">
        <ele>459</ele>
        <time>2025-09-22T21:15:36Z</time>
      </trkpt>
      <trkpt lat="45.46841" lon="4.18407">
        <ele>462</ele>
        <time>2025-09-22T21:15:45Z</time>
      </trkpt>
      <trkpt lat="45.46885" lon="4.18394">
        <ele>467</ele>
        <time>2025-09-22T21:15:56Z</time>
      </trkpt>
      <trkpt lat="45.46945" lon="4.18387">
        <ele>473</ele>
        <time>2025-09-22T21:16:10Z</time>
      </trkpt>
      <trkpt lat="45.46971" lon="4.18388">
        <ele>475</ele>
        <time>2025-09-22T21:16:16Z</time>
      </trkpt>
      <trkpt lat="45.47" lon="4.18383">
        <ele>478</ele>
        <time>2025-09-22T21:16:23Z</time>
      </trkpt>
      <trkpt lat="45.47018" lon="4.18388">
        <ele>479</ele>
        <time>2025-09-22T21:16:27Z</time>
      </trkpt>
      <trkpt lat="45.47038" lon="4.18401">
        <ele>479</ele>
        <time>2025-09-22T21:16:32Z</time>
      </trkpt>
      <trkpt lat="45.47044" lon="4.18402">
        <ele>479</ele>
        <time>2025-09-22T21:16:33Z</time>
      </trkpt>
      <trkpt lat="45.47071" lon="4.18416">
        <ele>481</ele>
        <time>2025-09-22T21:16:40Z</time>
      </trkpt>
      <trkpt lat="45.471" lon="4.18414">
        <ele>483</ele>
        <time>2025-09-22T21:16:47Z</time>
      </trkpt>
      <trkpt lat="45.47108" lon="4.1841">
        <ele>484</ele>
        <time>2025-09-22T21:16:49Z</time>
      </trkpt>
      <trkpt lat="45.47114" lon="4.18402">
        <ele>485</ele>
        <time>2025-09-22T21:16:51Z</time>
      </trkpt>
      <trkpt lat="45.47129" lon="4.1836">
        <ele>489</ele>
        <time>2025-09-22T21:16:59Z</time>
      </trkpt>
      <trkpt lat="45.47134" lon="4.18336">
        <ele>491</ele>
        <time>2025-09-22T21:17:03Z</time>
      </trkpt>
      <trkpt lat="45.47162" lon="4.18265">
        <ele>492</ele>
        <time>2025-09-22T21:17:16Z</time>
      </trkpt>
      <trkpt lat="45.47199" lon="4.18134">
        <ele>488</ele>
        <time>2025-09-22T21:17:39Z</time>
      </trkpt>
      <trkpt lat="45.47199" lon="4.18126">
        <ele>488</ele>
        <time>2025-09-22T21:17:40Z</time>
      </trkpt>
      <trkpt lat="45.4719" lon="4.18095">
        <ele>488</ele>
        <time>2025-09-22T21:17:46Z</time>
      </trkpt>
      <trkpt lat="45.47173" lon="4.18063">
        <ele>489</ele>
        <time>2025-09-22T21:17:53Z</time>
      </trkpt>
      <trkpt lat="45.47153" lon="4.18016">
        <ele>489</ele>
        <time>2025-09-22T21:18:02Z</time>
      </trkpt>
      <trkpt lat="45.47146" lon="4.17987">
        <ele>488</ele>
        <time>2025-09-22T21:18:07Z</time>
      </trkpt>
      <trkpt lat="45.47151" lon="4.17973">
        <ele>487</ele>
        <time>2025-09-22T21:18:09Z</time>
      </trkpt>
      <trkpt lat="45.47178" lon="4.17943">
        <ele>483</ele>
        <time>2025-09-22T21:18:17Z</time>
      </trkpt>
      <trkpt lat="45.47178" lon="4.17934">
        <ele>483</ele>
        <time>2025-09-22T21:18:19Z</time>
      </trkpt>
      <trkpt lat="45.47165" lon="4.17905">
        <ele>484</ele>
        <time>2025-09-22T21:18:24Z</time>
      </trkpt>
      <trkpt lat="45.47167" lon="4.17896">
        <ele>484</ele>
        <time>2025-09-22T21:18:26Z</time>
      </trkpt>
      <trkpt lat="45.47175" lon="4.17881">
        <ele>483</ele>
        <time>2025-09-22T21:18:29Z</time>
      </trkpt>
      <trkpt lat="45.47194" lon="4.178">
        <ele>480</ele>
        <time>2025-09-22T21:18:43Z</time>
      </trkpt>
      <trkpt lat="45.47212" lon="4.17758">
        <ele>476</ele>
        <time>2025-09-22T21:18:51Z</time>
      </trkpt>
      <trkpt lat="45.4723" lon="4.17749">
        <ele>474</ele>
        <time>2025-09-22T21:18:55Z</time>
      </trkpt>
      <trkpt lat="45.47235" lon="4.17737">
        <ele>473</ele>
        <time>2025-09-22T21:18:58Z</time>
      </trkpt>
      <trkpt lat="45.47232" lon="4.17697">
        <ele>474</ele>
        <time>2025-09-22T21:19:04Z</time>
      </trkpt>
      <trkpt lat="45.47218" lon="4.17624">
        <ele>476</ele>
        <time>2025-09-22T21:19:17Z</time>
      </trkpt>
      <trkpt lat="45.47219" lon="4.17617">
        <ele>476</ele>
        <time>2025-09-22T21:19:18Z</time>
      </trkpt>
      <trkpt lat="45.47223" lon="4.17612">
        <ele>476</ele>
        <time>2025-09-22T21:19:19Z</time>
      </trkpt>
      <trkpt lat="45.47227" lon="4.17612">
        <ele>476</ele>
        <time>2025-09-22T21:19:20Z</time>
      </trkpt>
      <trkpt lat="45.47239" lon="4.17619">
        <ele>475</ele>
        <time>2025-09-22T21:19:23Z</time>
      </trkpt>
      <trkpt lat="45.47259" lon="4.17639">
        <ele>474</ele>
        <time>2025-09-22T21:19:29Z</time>
      </trkpt>
      <trkpt lat="45.47277" lon="4.17652">
        <ele>475</ele>
        <time>2025-09-22T21:19:33Z</time>
      </trkpt>
      <trkpt lat="45.47291" lon="4.17672">
        <ele>474</ele>
        <time>2025-09-22T21:19:38Z</time>
      </trkpt>
      <trkpt lat="45.47308" lon="4.17705">
        <ele>474</ele>
        <time>2025-09-22T21:19:45Z</time>
      </trkpt>
      <trkpt lat="45.47314" lon="4.17709">
        <ele>474</ele>
        <time>2025-09-22T21:19:46Z</time>
      </trkpt>
      <trkpt lat="45.47329" lon="4.17711">
        <ele>474</ele>
        <time>2025-09-22T21:19:50Z</time>
      </trkpt>
      <trkpt lat="45.4735" lon="4.17721">
        <ele>475</ele>
        <time>2025-09-22T21:19:55Z</time>
      </trkpt>
      <trkpt lat="45.47355" lon="4.17719">
        <ele>476</ele>
        <time>2025-09-22T21:19:56Z</time>
      </trkpt>
      <trkpt lat="45.47362" lon="4.17725">
        <ele>476</ele>
        <time>2025-09-22T21:19:58Z</time>
      </trkpt>
      <trkpt lat="45.47373" lon="4.17726">
        <ele>476</ele>
        <time>2025-09-22T21:20:01Z</time>
      </trkpt>
      <trkpt lat="45.47398" lon="4.17735">
        <ele>478</ele>
        <time>2025-09-22T21:20:07Z</time>
      </trkpt>
      <trkpt lat="45.47461" lon="4.17747">
        <ele>481</ele>
        <time>2025-09-22T21:20:22Z</time>
      </trkpt>
      <trkpt lat="45.47483" lon="4.17747">
        <ele>483</ele>
        <time>2025-09-22T21:20:27Z</time>
      </trkpt>
      <trkpt lat="45.47514" lon="4.17741">
        <ele>485</ele>
        <time>2025-09-22T21:20:34Z</time>
      </trkpt>
      <trkpt lat="45.47566" lon="4.17737">
        <ele>487</ele>
        <time>2025-09-22T21:20:46Z</time>
      </trkpt>
      <trkpt lat="45.47587" lon="4.17733">
        <ele>487</ele>
        <time>2025-09-22T21:20:51Z</time>
      </trkpt>
      <trkpt lat="45.47624" lon="4.17734">
        <ele>487</ele>
        <time>2025-09-22T21:21:00Z</time>
      </trkpt>
      <trkpt lat="45.47643" lon="4.17739">
        <ele>487</ele>
        <time>2025-09-22T21:21:04Z</time>
      </trkpt>
      <trkpt lat="45.47641" lon="4.17766">
        <ele>487</ele>
        <time>2025-09-22T21:21:09Z</time>
      </trkpt>
      <trkpt lat="45.4761" lon="4.17888">
        <ele>486</ele>
        <time>2025-09-22T21:21:30Z</time>
      </trkpt>
      <trkpt lat="45.47599" lon="4.17921">
        <ele>486</ele>
        <time>2025-09-22T21:21:36Z</time>
      </trkpt>
      <trkpt lat="45.47585" lon="4.17935">
        <ele>486</ele>
        <time>2025-09-22T21:21:40Z</time>
      </trkpt>
      <trkpt lat="45.47579" lon="4.17947">
        <ele>485</ele>
        <time>2025-09-22T21:21:42Z</time>
      </trkpt>
      <trkpt lat="45.47578" lon="4.1797">
        <ele>485</ele>
        <time>2025-09-22T21:21:46Z</time>
      </trkpt>
      <trkpt lat="45.4758" lon="4.17978">
        <ele>485</ele>
        <time>2025-09-22T21:21:48Z</time>
      </trkpt>
      <trkpt lat="45.47587" lon="4.17999">
        <ele>485</ele>
        <time>2025-09-22T21:21:51Z</time>
      </trkpt>
      <trkpt lat="45.47596" lon="4.1801">
        <ele>483</ele>
        <time>2025-09-22T21:21:54Z</time>
      </trkpt>
      <trkpt lat="45.47595" lon="4.18017">
        <ele>482</ele>
        <time>2025-09-22T21:21:55Z</time>
      </trkpt>
      <trkpt lat="45.4759" lon="4.18021">
        <ele>482</ele>
        <time>2025-09-22T21:21:57Z</time>
      </trkpt>
    </trkseg>
  </trk>
</gpx>